Observation data for South Plains 3ENE on 07/03/2020      Previous  Date       Current Mesonet Observations  Soil Data  Daily Summary Page  Observations in Plain Language
KSP2 030500Z 06003KT 25/17 A301 RMK A01 T02450170  RH  063%=      5-min Rain = 0
KSP2 030501Z 06003KT 25/17 A301 RMK A01 T02450171  RH  063%=      5-min Rain = 0
KSP2 030502Z 07004KT 24/17 A301 RMK A01 T02440170  RH  063%=      5-min Rain = 0
KSP2 030503Z 07004KT 24/17 A301 RMK A01 T02440170  RH  063%=      5-min Rain = 0
KSP2 030504Z 07004KT 24/17 A301 RMK A01 T02440170  RH  063%=      5-min Rain = 0
KSP2 030505Z 08004KT 24/17 A301 RMK A01 T02440170  RH  063%=      5-min Rain = 0
KSP2 030506Z 08004KT 24/17 A301 RMK A01 T02440170  RH  063%=      5-min Rain = 0
KSP2 030507Z 08005KT 24/17 A301 RMK A01 T02440170  RH  063%=      5-min Rain = 0
KSP2 030508Z 07004KT 24/17 A301 RMK A01 T02440170  RH  063%=      5-min Rain = 0
KSP2 030509Z 08005KT 25/17 A301 RMK A01 T02450170  RH  063%=      5-min Rain = 0
KSP2 030510Z 07005KT 25/17 A301 RMK A01 T02450170  RH  063%=      5-min Rain = 0
KSP2 030511Z 08005KT 25/17 A301 RMK A01 T02450170  RH  063%=      5-min Rain = 0
KSP2 030512Z 07005KT 25/17 A301 RMK A01 T02450170  RH  063%=      5-min Rain = 0
KSP2 030513Z 07006KT 25/17 A301 RMK A01 T02460170  RH  063%=      5-min Rain = 0
KSP2 030514Z 07007KT 25/17 A301 RMK A01 T02460170  RH  063%=      5-min Rain = 0
KSP2 030515Z 07006KT 25/17 A301 RMK A01 T02470170  RH  062%=      5-min Rain = 0
KSP2 030516Z 07005KT 25/17 A301 RMK A01 T02480170  RH  062%=      5-min Rain = 0
KSP2 030517Z 07005KT 25/17 A301 RMK A01 T02480170  RH  062%=      5-min Rain = 0
KSP2 030518Z 07005KT 25/17 A301 RMK A01 T02480169  RH  062%=      5-min Rain = 0
KSP2 030519Z 07005KT 25/17 A301 RMK A01 T02480170  RH  062%=      5-min Rain = 0
KSP2 030520Z 07005KT 25/17 A301 RMK A01 T02480169  RH  062%=      5-min Rain = 0
KSP2 030521Z 07006KT 25/17 A301 RMK A01 T02480169  RH  061%=      5-min Rain = 0
KSP2 030522Z 07005KT 25/17 A301 RMK A01 T02480169  RH  061%=      5-min Rain = 0
KSP2 030523Z 07005KT 25/17 A301 RMK A01 T02490169  RH  061%=      5-min Rain = 0
KSP2 030524Z 07005KT 25/17 A301 RMK A01 T02490170  RH  061%=      5-min Rain = 0
KSP2 030525Z 07005KT 25/17 A301 RMK A01 T02490170  RH  061%=      5-min Rain = 0
KSP2 030526Z 08005KT 25/17 A3009 RMK A01 T02490170  RH  062%=      5-min Rain = 0
KSP2 030527Z 08005KT 25/17 A3009 RMK A01 T02490171  RH  062%=      5-min Rain = 0
KSP2 030528Z 07006KT 25/17 A3009 RMK A01 T02480171  RH  062%=      5-min Rain = 0
KSP2 030529Z 08006KT 25/17 A3009 RMK A01 T02480171  RH  062%=      5-min Rain = 0
KSP2 030530Z 08005KT 25/17 A3009 RMK A01 T02480171  RH  062%=      5-min Rain = 0
KSP2 030531Z 07005KT 25/17 A3009 RMK A01 T02480171  RH  062%=      5-min Rain = 0
KSP2 030532Z 07005KT 25/17 A3009 RMK A01 T02480171  RH  062%=      5-min Rain = 0
KSP2 030533Z 08005KT 25/17 A3009 RMK A01 T02480171  RH  062%=      5-min Rain = 0
KSP2 030534Z 08005KT 25/17 A3009 RMK A01 T02480171  RH  062%=      5-min Rain = 0
KSP2 030535Z 07005KT 25/17 A3009 RMK A01 T02480171  RH  062%=      5-min Rain = 0
KSP2 030536Z 07005KT 25/17 A3009 RMK A01 T02480171  RH  062%=      5-min Rain = 0
KSP2 030537Z 07005KT 25/17 A3009 RMK A01 T02480171  RH  062%=      5-min Rain = 0
KSP2 030538Z 07004KT 25/17 A3009 RMK A01 T02480171  RH  062%=      5-min Rain = 0
KSP2 030539Z 07004KT 25/17 A3009 RMK A01 T02480171  RH  062%=      5-min Rain = 0
KSP2 030540Z 07004KT 25/17 A3009 RMK A01 T02470171  RH  062%=      5-min Rain = 0
KSP2 030541Z 07004KT 25/17 A3009 RMK A01 T02470171  RH  062%=      5-min Rain = 0
KSP2 030542Z 07004KT 25/17 A3009 RMK A01 T02470171  RH  063%=      5-min Rain = 0
KSP2 030543Z 07004KT 25/17 A3009 RMK A01 T02460171  RH  063%=      5-min Rain = 0
KSP2 030544Z 07004KT 25/17 A3009 RMK A01 T02460170  RH  063%=      5-min Rain = 0
KSP2 030545Z 08004KT 25/17 A3009 RMK A01 T02450170  RH  063%=      5-min Rain = 0
KSP2 030546Z 08004KT 25/17 A3009 RMK A01 T02450170  RH  063%=      5-min Rain = 0
KSP2 030547Z 09004KT 24/17 A3009 RMK A01 T02440170  RH  063%=      5-min Rain = 0
KSP2 030548Z 09004KT 24/17 A3009 RMK A01 T02440170  RH  063%=      5-min Rain = 0
KSP2 030549Z 09003KT 24/17 A3009 RMK A01 T02430170  RH  064%=      5-min Rain = 0
KSP2 030550Z 09004KT 24/17 A3009 RMK A01 T02430171  RH  064%=      5-min Rain = 0
KSP2 030551Z 10004KT 24/17 A3009 RMK A01 T02420170  RH  064%=      5-min Rain = 0
KSP2 030552Z 10004KT 24/17 A3009 RMK A01 T02420170  RH  064%=      5-min Rain = 0
KSP2 030553Z 10004KT 24/17 A3009 RMK A01 T02410170  RH  064%=      5-min Rain = 0
KSP2 030554Z 10004KT 24/17 A3009 RMK A01 T02410170  RH  065%=      5-min Rain = 0
KSP2 030555Z 11004KT 24/17 A3009 RMK A01 T02410170  RH  065%=      5-min Rain = 0
KSP2 030556Z 11003KT 24/17 A3008 RMK A01 T02400170  RH  065%=      5-min Rain = 0
KSP2 030557Z 11003KT 24/17 A3008 RMK A01 T02400170  RH  065%=      5-min Rain = 0
KSP2 030558Z 11003KT 24/17 A3008 RMK A01 T02400170  RH  065%=      5-min Rain = 0
KSP2 030559Z 11003KT 24/17 A3008 RMK A01 T02410170  RH  065%=      5-min Rain = 0
KSP2 030600Z 11003KT 24/17 A3008 RMK A01 T02400170  RH  065%=      5-min Rain = 0
KSP2 030601Z 12002KT 24/17 A3008 RMK A01 T02410171  RH  065%=      5-min Rain = 0
KSP2 030602Z 13002KT 24/17 A3008 RMK A01 T02410171  RH  065%=      5-min Rain = 0
KSP2 030603Z 14002KT 24/17 A3008 RMK A01 T02400170  RH  065%=      5-min Rain = 0
KSP2 030604Z 13002KT 24/17 A3008 RMK A01 T02410171  RH  065%=      5-min Rain = 0
KSP2 030605Z 13002KT 24/17 A3008 RMK A01 T02410170  RH  065%=      5-min Rain = 0
KSP2 030606Z 12002KT 24/17 A3008 RMK A01 T02410170  RH  065%=      5-min Rain = 0
KSP2 030607Z 12002KT 24/17 A3008 RMK A01 T02410170  RH  065%=      5-min Rain = 0
KSP2 030608Z 12003KT 24/17 A3008 RMK A01 T02410170  RH  065%=      5-min Rain = 0
KSP2 030609Z 12003KT 24/17 A3008 RMK A01 T02400170  RH  065%=      5-min Rain = 0
KSP2 030610Z 12003KT 24/17 A3008 RMK A01 T02390170  RH  065%=      5-min Rain = 0
KSP2 030611Z 12003KT 24/17 A3008 RMK A01 T02380169  RH  065%=      5-min Rain = 0
KSP2 030612Z 11004KT 24/17 A3008 RMK A01 T02370170  RH  066%=      5-min Rain = 0
KSP2 030613Z 10004KT 24/17 A3008 RMK A01 T02360169  RH  066%=      5-min Rain = 0
KSP2 030614Z 10005KT 24/17 A3008 RMK A01 T02350169  RH  067%=      5-min Rain = 0
KSP2 030615Z 10005KT 23/17 A3008 RMK A01 T02340169  RH  067%=      5-min Rain = 0
KSP2 030616Z 09005KT 23/17 A3008 RMK A01 T02340170  RH  067%=      5-min Rain = 0
KSP2 030617Z 09005KT 23/17 A3008 RMK A01 T02340170  RH  067%=      5-min Rain = 0
KSP2 030618Z 09005KT 23/17 A3008 RMK A01 T02340170  RH  067%=      5-min Rain = 0
KSP2 030619Z 08005KT 23/17 A3008 RMK A01 T02340170  RH  067%=      5-min Rain = 0
KSP2 030620Z 08005KT 23/17 A3008 RMK A01 T02340170  RH  067%=      5-min Rain = 0
KSP2 030621Z 07005KT 23/17 A3008 RMK A01 T02340170  RH  067%=      5-min Rain = 0
KSP2 030622Z 07005KT 24/17 A3008 RMK A01 T02350170  RH  067%=      5-min Rain = 0
KSP2 030623Z 07005KT 24/17 A3008 RMK A01 T02350170  RH  067%=      5-min Rain = 0
KSP2 030624Z 07005KT 23/17 A3008 RMK A01 T02340170  RH  067%=      5-min Rain = 0
KSP2 030625Z 06005KT 24/17 A3008 RMK A01 T02350170  RH  067%=      5-min Rain = 0
KSP2 030626Z 06005KT 24/17 A3008 RMK A01 T02350170  RH  067%=      5-min Rain = 0
KSP2 030627Z 06005KT 24/17 A3008 RMK A01 T02360170  RH  067%=      5-min Rain = 0
KSP2 030628Z 06006KT 24/17 A3008 RMK A01 T02370170  RH  066%=      5-min Rain = 0
KSP2 030629Z 07005KT 24/17 A3008 RMK A01 T02380171  RH  066%=      5-min Rain = 0
KSP2 030630Z 07005KT 24/17 A3008 RMK A01 T02390171  RH  066%=      5-min Rain = 0
KSP2 030631Z 07005KT 24/17 A3008 RMK A01 T02400171  RH  065%=      5-min Rain = 0
KSP2 030632Z 07005KT 24/17 A3008 RMK A01 T02400171  RH  065%=      5-min Rain = 0
KSP2 030633Z 07005KT 24/17 A3008 RMK A01 T02400171  RH  065%=      5-min Rain = 0
KSP2 030634Z 07005KT 24/17 A3008 RMK A01 T02410171  RH  065%=      5-min Rain = 0
KSP2 030635Z 08005KT 24/17 A3008 RMK A01 T02410171  RH  065%=      5-min Rain = 0
KSP2 030636Z 08005KT 24/17 A3008 RMK A01 T02410171  RH  065%=      5-min Rain = 0
KSP2 030637Z 08005KT 24/17 A3008 RMK A01 T02410171  RH  065%=      5-min Rain = 0
KSP2 030638Z 08004KT 24/17 A3008 RMK A01 T02410171  RH  065%=      5-min Rain = 0
KSP2 030639Z 08004KT 24/17 A3008 RMK A01 T02420171  RH  065%=      5-min Rain = 0
KSP2 030640Z 08004KT 24/17 A3008 RMK A01 T02420171  RH  065%=      5-min Rain = 0
KSP2 030641Z 09004KT 24/17 A3008 RMK A01 T02420171  RH  064%=      5-min Rain = 0
KSP2 030642Z 09003KT 24/17 A3008 RMK A01 T02430172  RH  064%=      5-min Rain = 0
KSP2 030643Z 10003KT 24/17 A3008 RMK A01 T02420171  RH  064%=      5-min Rain = 0
KSP2 030644Z 10004KT 24/17 A3008 RMK A01 T02420171  RH  064%=      5-min Rain = 0
KSP2 030645Z 11004KT 24/17 A3008 RMK A01 T02420171  RH  064%=      5-min Rain = 0
KSP2 030646Z 11003KT 24/17 A3007 RMK A01 T02420171  RH  064%=      5-min Rain = 0
KSP2 030647Z 11004KT 24/17 A3007 RMK A01 T02420171  RH  064%=      5-min Rain = 0
KSP2 030648Z 11004KT 24/17 A3007 RMK A01 T02420171  RH  064%=      5-min Rain = 0
KSP2 030649Z 11004KT 24/17 A3007 RMK A01 T02430171  RH  064%=      5-min Rain = 0
KSP2 030650Z 12003KT 24/17 A3007 RMK A01 T02430172  RH  064%=      5-min Rain = 0
KSP2 030651Z 12003KT 24/17 A3007 RMK A01 T02440172  RH  064%=      5-min Rain = 0
KSP2 030652Z 13004KT 24/17 A3007 RMK A01 T02440172  RH  064%=      5-min Rain = 0
KSP2 030653Z 13003KT 24/17 A3007 RMK A01 T02440172  RH  064%=      5-min Rain = 0
KSP2 030654Z 14003KT 24/17 A3007 RMK A01 T02440172  RH  064%=      5-min Rain = 0
KSP2 030655Z 14003KT 25/17 A3007 RMK A01 T02450172  RH  064%=      5-min Rain = 0
KSP2 030656Z 14003KT 25/17 A3007 RMK A01 T02450173  RH  064%=      5-min Rain = 0
KSP2 030657Z 15004KT 25/17 A3006 RMK A01 T02460173  RH  064%=      5-min Rain = 0
KSP2 030658Z 16004KT 25/17 A3006 RMK A01 T02470173  RH  064%=      5-min Rain = 0
KSP2 030659Z 16004KT 25/17 A3006 RMK A01 T02470173  RH  063%=      5-min Rain = 0
KSP2 030700Z 16005KT 25/17 A3006 RMK A01 T02470173  RH  063%=      5-min Rain = 0
KSP2 030701Z 17005KT 25/17 A3006 RMK A01 T02470173  RH  063%=      5-min Rain = 0
KSP2 030702Z 17005KT 25/17 A3006 RMK A01 T02470173  RH  064%=      5-min Rain = 0
KSP2 030703Z 17005KT 25/17 A3006 RMK A01 T02460173  RH  064%=      5-min Rain = 0
KSP2 030704Z 17005KT 25/17 A3006 RMK A01 T02460173  RH  064%=      5-min Rain = 0
KSP2 030705Z 17005KT 25/17 A3006 RMK A01 T02460174  RH  064%=      5-min Rain = 0
KSP2 030706Z 18005KT 25/17 A3006 RMK A01 T02450174  RH  064%=      5-min Rain = 0
KSP2 030707Z 18005KT 25/17 A3006 RMK A01 T02450174  RH  065%=      5-min Rain = 0
KSP2 030708Z 17005KT 24/17 A3006 RMK A01 T02440174  RH  065%=      5-min Rain = 0
KSP2 030709Z 17004KT 24/17 A3006 RMK A01 T02440174  RH  065%=      5-min Rain = 0
KSP2 030710Z 17004KT 24/17 A3006 RMK A01 T02440174  RH  065%=      5-min Rain = 0
KSP2 030711Z 17004KT 25/17 A3006 RMK A01 T02450174  RH  065%=      5-min Rain = 0
KSP2 030712Z 17004KT 25/17 A3006 RMK A01 T02450174  RH  065%=      5-min Rain = 0
KSP2 030713Z 18004KT 25/17 A3006 RMK A01 T02450174  RH  065%=      5-min Rain = 0
KSP2 030714Z 18003KT 25/17 A3005 RMK A01 T02450174  RH  065%=      5-min Rain = 0
KSP2 030715Z 19003KT 25/17 A3005 RMK A01 T02450174  RH  065%=      5-min Rain = 0
KSP2 030716Z 18003KT 24/17 A3005 RMK A01 T02440174  RH  065%=      5-min Rain = 0
KSP2 030717Z 19003KT 24/17 A3005 RMK A01 T02440174  RH  065%=      5-min Rain = 0
KSP2 030718Z 19003KT 24/17 A3005 RMK A01 T02430173  RH  065%=      5-min Rain = 0
KSP2 030719Z 19004KT 24/17 A3005 RMK A01 T02430173  RH  065%=      5-min Rain = 0
KSP2 030720Z 19004KT 24/17 A3005 RMK A01 T02430173  RH  065%=      5-min Rain = 0
KSP2 030721Z 19004KT 24/17 A3005 RMK A01 T02420173  RH  065%=      5-min Rain = 0
KSP2 030722Z 20004KT 24/17 A3005 RMK A01 T02410173  RH  065%=      5-min Rain = 0
KSP2 030723Z 20004KT 24/17 A3005 RMK A01 T02410172  RH  066%=      5-min Rain = 0
KSP2 030724Z 19004KT 24/17 A3005 RMK A01 T02400172  RH  066%=      5-min Rain = 0
KSP2 030725Z 19004KT 24/17 A3005 RMK A01 T02390172  RH  066%=      5-min Rain = 0
KSP2 030726Z 20004KT 24/17 A3005 RMK A01 T02390173  RH  066%=      5-min Rain = 0
KSP2 030727Z 19004KT 24/17 A3005 RMK A01 T02390173  RH  067%=      5-min Rain = 0
KSP2 030728Z 19004KT 24/17 A3005 RMK A01 T02370172  RH  067%=      5-min Rain = 0
KSP2 030729Z 20004KT 24/17 A3004 RMK A01 T02370172  RH  067%=      5-min Rain = 0
KSP2 030730Z 20004KT 24/17 A3004 RMK A01 T02360171  RH  067%=      5-min Rain = 0
KSP2 030731Z 20005KT 24/17 A3004 RMK A01 T02350171  RH  067%=      5-min Rain = 0
KSP2 030732Z 20005KT 23/17 A3004 RMK A01 T02340171  RH  068%=      5-min Rain = 0
KSP2 030733Z 20005KT 23/17 A3004 RMK A01 T02330171  RH  068%=      5-min Rain = 0
KSP2 030734Z 20005KT 23/17 A3004 RMK A01 T02320170  RH  068%=      5-min Rain = 0
KSP2 030735Z 20005KT 23/17 A3004 RMK A01 T02310170  RH  069%=      5-min Rain = 0
KSP2 030736Z 20005KT 23/17 A3004 RMK A01 T02300170  RH  069%=      5-min Rain = 0
KSP2 030737Z 20006KT 23/17 A3004 RMK A01 T02290170  RH  069%=      5-min Rain = 0
KSP2 030738Z 20006KT 23/17 A3004 RMK A01 T02290170  RH  069%=      5-min Rain = 0
KSP2 030739Z 20006KT 23/17 A3004 RMK A01 T02270169  RH  069%=      5-min Rain = 0
KSP2 030740Z 20006KT 23/17 A3004 RMK A01 T02260168  RH  070%=      5-min Rain = 0
KSP2 030741Z 20005KT 23/17 A3004 RMK A01 T02250168  RH  070%=      5-min Rain = 0
KSP2 030742Z 20005KT 22/17 A3004 RMK A01 T02240168  RH  071%=      5-min Rain = 0
KSP2 030743Z 20005KT 22/17 A3004 RMK A01 T02240169  RH  071%=      5-min Rain = 0
KSP2 030744Z 20006KT 22/17 A3004 RMK A01 T02230168  RH  071%=      5-min Rain = 0
KSP2 030745Z 20006KT 22/17 A3004 RMK A01 T02220169  RH  072%=      5-min Rain = 0
KSP2 030746Z 20006KT 22/17 A3004 RMK A01 T02220169  RH  072%=      5-min Rain = 0
KSP2 030747Z 19006KT 22/17 A3004 RMK A01 T02220169  RH  072%=      5-min Rain = 0
KSP2 030748Z 19006KT 22/17 A3004 RMK A01 T02220169  RH  072%=      5-min Rain = 0
KSP2 030749Z 19006KT 22/17 A3004 RMK A01 T02220168  RH  072%=      5-min Rain = 0
KSP2 030750Z 19006KT 22/17 A3004 RMK A01 T02220168  RH  072%=      5-min Rain = 0
KSP2 030751Z 20006KT 22/17 A3004 RMK A01 T02220168  RH  072%=      5-min Rain = 0
KSP2 030752Z 20006KT 22/17 A3004 RMK A01 T02220168  RH  072%=      5-min Rain = 0
KSP2 030753Z 20006KT 22/17 A3004 RMK A01 T02210168  RH  072%=      5-min Rain = 0
KSP2 030754Z 20006KT 22/17 A3004 RMK A01 T02210168  RH  072%=      5-min Rain = 0
KSP2 030755Z 20006KT 22/17 A3004 RMK A01 T02200168  RH  072%=      5-min Rain = 0
KSP2 030756Z 20006KT 22/17 A3004 RMK A01 T02200169  RH  072%=      5-min Rain = 0
KSP2 030757Z 21006KT 22/17 A3004 RMK A01 T02210169  RH  073%=      5-min Rain = 0
KSP2 030758Z 20006KT 22/17 A3004 RMK A01 T02210170  RH  072%=      5-min Rain = 0
KSP2 030759Z 20006KT 22/17 A3004 RMK A01 T02220170  RH  072%=      5-min Rain = 0
KSP2 030800Z 20006KT 22/17 A3004 RMK A01 T02230170  RH  072%=      5-min Rain = 0
KSP2 030801Z 20006KT 22/17 A3004 RMK A01 T02230170  RH  072%=      5-min Rain = 0
KSP2 030802Z 20005KT 22/17 A3004 RMK A01 T02230170  RH  072%=      5-min Rain = 0
KSP2 030803Z 21006KT 22/17 A3004 RMK A01 T02240170  RH  072%=      5-min Rain = 0
KSP2 030804Z 21005KT 22/17 A3004 RMK A01 T02240170  RH  071%=      5-min Rain = 0
KSP2 030805Z 21005KT 23/17 A3004 RMK A01 T02250170  RH  071%=      5-min Rain = 0
KSP2 030806Z 21005KT 23/17 A3004 RMK A01 T02260170  RH  071%=      5-min Rain = 0
KSP2 030807Z 21005KT 23/17 A3004 RMK A01 T02260170  RH  070%=      5-min Rain = 0
KSP2 030808Z 21005KT 23/17 A3004 RMK A01 T02280170  RH  070%=      5-min Rain = 0
KSP2 030809Z 21005KT 23/17 A3004 RMK A01 T02290170  RH  069%=      5-min Rain = 0
KSP2 030810Z 21005KT 23/17 A3004 RMK A01 T02300170  RH  069%=      5-min Rain = 0
KSP2 030811Z 21005KT 23/17 A3004 RMK A01 T02300170  RH  069%=      5-min Rain = 0
KSP2 030812Z 21005KT 23/17 A3004 RMK A01 T02300170  RH  069%=      5-min Rain = 0
KSP2 030813Z 21005KT 23/17 A3004 RMK A01 T02300169  RH  069%=      5-min Rain = 0
KSP2 030814Z 21005KT 23/17 A3004 RMK A01 T02300170  RH  069%=      5-min Rain = 0
KSP2 030815Z 21005KT 23/17 A3004 RMK A01 T02300169  RH  069%=      5-min Rain = 0
KSP2 030816Z 21005KT 23/17 A3004 RMK A01 T02300169  RH  069%=      5-min Rain = 0
KSP2 030817Z 21005KT 23/17 A3004 RMK A01 T02290169  RH  069%=      5-min Rain = 0
KSP2 030818Z 22005KT 23/17 A3004 RMK A01 T02290169  RH  069%=      5-min Rain = 0
KSP2 030819Z 22005KT 23/17 A3004 RMK A01 T02290169  RH  069%=      5-min Rain = 0
KSP2 030820Z 22005KT 23/17 A3004 RMK A01 T02290170  RH  069%=      5-min Rain = 0
KSP2 030821Z 22005KT 23/17 A3004 RMK A01 T02290169  RH  069%=      5-min Rain = 0
KSP2 030822Z 22005KT 23/17 A3004 RMK A01 T02290170  RH  069%=      5-min Rain = 0
KSP2 030823Z 22005KT 23/17 A3004 RMK A01 T02290169  RH  069%=      5-min Rain = 0
KSP2 030824Z 21005KT 23/17 A3003 RMK A01 T02290169  RH  069%=      5-min Rain = 0
KSP2 030825Z 21005KT 23/17 A3003 RMK A01 T02290169  RH  069%=      5-min Rain = 0
KSP2 030826Z 21005KT 23/17 A3003 RMK A01 T02290169  RH  069%=      5-min Rain = 0
KSP2 030827Z 21005KT 23/17 A3003 RMK A01 T02290169  RH  069%=      5-min Rain = 0
KSP2 030828Z 21005KT 23/17 A3003 RMK A01 T02280168  RH  069%=      5-min Rain = 0
KSP2 030829Z 21005KT 23/17 A3003 RMK A01 T02270169  RH  069%=      5-min Rain = 0
KSP2 030830Z 21005KT 23/17 A3003 RMK A01 T02260168  RH  070%=      5-min Rain = 0
KSP2 030831Z 21005KT 23/17 A3003 RMK A01 T02260168  RH  070%=      5-min Rain = 0
KSP2 030832Z 21005KT 23/17 A3003 RMK A01 T02250168  RH  070%=      5-min Rain = 0
KSP2 030833Z 21005KT 22/17 A3003 RMK A01 T02240168  RH  070%=      5-min Rain = 0
KSP2 030834Z 21005KT 22/17 A3003 RMK A01 T02240168  RH  071%=      5-min Rain = 0
KSP2 030835Z 21005KT 22/17 A3003 RMK A01 T02230168  RH  071%=      5-min Rain = 0
KSP2 030836Z 20004KT 22/17 A3003 RMK A01 T02230167  RH  071%=      5-min Rain = 0
KSP2 030837Z 20004KT 22/17 A3003 RMK A01 T02230168  RH  071%=      5-min Rain = 0
KSP2 030838Z 20005KT 22/17 A3003 RMK A01 T02220168  RH  071%=      5-min Rain = 0
KSP2 030839Z 20005KT 22/17 A3003 RMK A01 T02210168  RH  072%=      5-min Rain = 0
KSP2 030840Z 20005KT 22/17 A3003 RMK A01 T02210168  RH  072%=      5-min Rain = 0
KSP2 030841Z 20004KT 22/17 A3004 RMK A01 T02210168  RH  072%=      5-min Rain = 0
KSP2 030842Z 20004KT 22/17 A3004 RMK A01 T02200167  RH  072%=      5-min Rain = 0
KSP2 030843Z 20004KT 22/17 A3004 RMK A01 T02200167  RH  072%=      5-min Rain = 0
KSP2 030844Z 20005KT 22/17 A3004 RMK A01 T02190167  RH  072%=      5-min Rain = 0
KSP2 030845Z 20004KT 22/17 A3004 RMK A01 T02190167  RH  072%=      5-min Rain = 0
KSP2 030846Z 19004KT 22/17 A3004 RMK A01 T02190167  RH  072%=      5-min Rain = 0
KSP2 030847Z 19004KT 22/17 A3004 RMK A01 T02190167  RH  072%=      5-min Rain = 0
KSP2 030848Z 19005KT 22/17 A3004 RMK A01 T02190167  RH  073%=      5-min Rain = 0
KSP2 030849Z 18004KT 22/17 A3004 RMK A01 T02190167  RH  073%=      5-min Rain = 0
KSP2 030850Z 19004KT 22/17 A3004 RMK A01 T02190167  RH  073%=      5-min Rain = 0
KSP2 030851Z 19003KT 22/17 A3004 RMK A01 T02190167  RH  073%=      5-min Rain = 0
KSP2 030852Z 19003KT 22/17 A3004 RMK A01 T02190168  RH  072%=      5-min Rain = 0
KSP2 030853Z 19003KT 22/17 A3004 RMK A01 T02200168  RH  072%=      5-min Rain = 0
KSP2 030854Z 19003KT 22/17 A3004 RMK A01 T02190168  RH  072%=      5-min Rain = 0
KSP2 030855Z 19003KT 22/17 A3004 RMK A01 T02190168  RH  072%=      5-min Rain = 0
KSP2 030856Z 19003KT 22/17 A3004 RMK A01 T02190168  RH  072%=      5-min Rain = 0
KSP2 030857Z 20003KT 22/17 A3004 RMK A01 T02190168  RH  073%=      5-min Rain = 0
KSP2 030858Z 19004KT 22/17 A3004 RMK A01 T02190168  RH  073%=      5-min Rain = 0
KSP2 030859Z 19004KT 22/17 A3004 RMK A01 T02190168  RH  073%=      5-min Rain = 0
KSP2 030900Z 19005KT 22/17 A3004 RMK A01 T02190168  RH  072%=      5-min Rain = 0
KSP2 030901Z 19005KT 22/17 A3004 RMK A01 T02200168  RH  072%=      5-min Rain = 0
KSP2 030902Z 19005KT 22/17 A3004 RMK A01 T02200167  RH  072%=      5-min Rain = 0
KSP2 030903Z 19005KT 22/17 A3004 RMK A01 T02200167  RH  072%=      5-min Rain = 0
KSP2 030904Z 19005KT 22/17 A3004 RMK A01 T02190167  RH  072%=      5-min Rain = 0
KSP2 030905Z 20005KT 22/17 A3004 RMK A01 T02190167  RH  072%=      5-min Rain = 0
KSP2 030906Z 20006KT 22/17 A3004 RMK A01 T02180167  RH  073%=      5-min Rain = 0
KSP2 030907Z 19005KT 22/17 A3004 RMK A01 T02180167  RH  073%=      5-min Rain = 0
KSP2 030908Z 20005KT 22/17 A3004 RMK A01 T02180167  RH  073%=      5-min Rain = 0
KSP2 030909Z 20005KT 22/17 A3004 RMK A01 T02180168  RH  073%=      5-min Rain = 0
KSP2 030910Z 20005KT 22/17 A3004 RMK A01 T02180168  RH  073%=      5-min Rain = 0
KSP2 030911Z 20005KT 22/17 A3004 RMK A01 T02180168  RH  073%=      5-min Rain = 0
KSP2 030912Z 19005KT 22/17 A3004 RMK A01 T02170168  RH  074%=      5-min Rain = 0
KSP2 030913Z 19005KT 22/17 A3004 RMK A01 T02170168  RH  074%=      5-min Rain = 0
KSP2 030914Z 20005KT 22/17 A3004 RMK A01 T02170169  RH  074%=      5-min Rain = 0
KSP2 030915Z 20005KT 22/17 A3004 RMK A01 T02180169  RH  074%=      5-min Rain = 0
KSP2 030916Z 20005KT 22/17 A3004 RMK A01 T02180170  RH  074%=      5-min Rain = 0
KSP2 030917Z 20005KT 22/17 A3004 RMK A01 T02180169  RH  074%=      5-min Rain = 0
KSP2 030918Z 20005KT 22/17 A3004 RMK A01 T02180169  RH  074%=      5-min Rain = 0
KSP2 030919Z 20005KT 22/17 A3004 RMK A01 T02190169  RH  074%=      5-min Rain = 0
KSP2 030920Z 20005KT 22/17 A3004 RMK A01 T02190170  RH  074%=      5-min Rain = 0
KSP2 030921Z 20005KT 22/17 A3004 RMK A01 T02190170  RH  074%=      5-min Rain = 0
KSP2 030922Z 20004KT 22/17 A3004 RMK A01 T02190170  RH  074%=      5-min Rain = 0
KSP2 030923Z 20005KT 22/17 A3004 RMK A01 T02190170  RH  074%=      5-min Rain = 0
KSP2 030924Z 20005KT 22/17 A3004 RMK A01 T02190170  RH  074%=      5-min Rain = 0
KSP2 030925Z 20005KT 22/17 A3005 RMK A01 T02190170  RH  074%=      5-min Rain = 0
KSP2 030926Z 21005KT 22/17 A3005 RMK A01 T02190170  RH  074%=      5-min Rain = 0
KSP2 030927Z 21005KT 22/17 A3005 RMK A01 T02190170  RH  074%=      5-min Rain = 0
KSP2 030928Z 20005KT 22/17 A3005 RMK A01 T02190170  RH  074%=      5-min Rain = 0
KSP2 030929Z 20006KT 22/17 A3005 RMK A01 T02190170  RH  073%=      5-min Rain = 0
KSP2 030930Z 20006KT 22/17 A3005 RMK A01 T02200170  RH  073%=      5-min Rain = 0
KSP2 030931Z 20006KT 22/17 A3005 RMK A01 T02200170  RH  073%=      5-min Rain = 0
KSP2 030932Z 20006KT 22/17 A3005 RMK A01 T02200170  RH  073%=      5-min Rain = 0
KSP2 030933Z 20006KT 22/17 A3005 RMK A01 T02200170  RH  073%=      5-min Rain = 0
KSP2 030934Z 20006KT 22/17 A3005 RMK A01 T02200170  RH  073%=      5-min Rain = 0
KSP2 030935Z 20006KT 22/17 A3005 RMK A01 T02200170  RH  073%=      5-min Rain = 0
KSP2 030936Z 20006KT 22/17 A3005 RMK A01 T02190170  RH  073%=      5-min Rain = 0
KSP2 030937Z 20006KT 22/17 A3005 RMK A01 T02190170  RH  074%=      5-min Rain = 0
KSP2 030938Z 20006KT 22/17 A3005 RMK A01 T02190170  RH  074%=      5-min Rain = 0
KSP2 030939Z 19007KT 22/17 A3005 RMK A01 T02190170  RH  073%=      5-min Rain = 0
KSP2 030940Z 19007KT 22/17 A3005 RMK A01 T02200170  RH  073%=      5-min Rain = 0
KSP2 030941Z 19006KT 22/17 A3005 RMK A01 T02200170  RH  073%=      5-min Rain = 0
KSP2 030942Z 19006KT 22/17 A3005 RMK A01 T02200170  RH  074%=      5-min Rain = 0
KSP2 030943Z 19006KT 22/17 A3004 RMK A01 T02190170  RH  074%=      5-min Rain = 0
KSP2 030944Z 19005KT 22/17 A3004 RMK A01 T02190170  RH  074%=      5-min Rain = 0
KSP2 030945Z 19006KT 22/17 A3004 RMK A01 T02180170  RH  074%=      5-min Rain = 0
KSP2 030946Z 19005KT 22/17 A3004 RMK A01 T02180171  RH  074%=      5-min Rain = 0
KSP2 030947Z 19005KT 22/17 A3004 RMK A01 T02180171  RH  074%=      5-min Rain = 0
KSP2 030948Z 19005KT 22/17 A3004 RMK A01 T02180170  RH  074%=      5-min Rain = 0
KSP2 030949Z 19005KT 22/17 A3004 RMK A01 T02180170  RH  074%=      5-min Rain = 0
KSP2 030950Z 20005KT 22/17 A3004 RMK A01 T02170170  RH  075%=      5-min Rain = 0
KSP2 030951Z 20005KT 22/17 A3004 RMK A01 T02170170  RH  075%=      5-min Rain = 0
KSP2 030952Z 20005KT 22/17 A3004 RMK A01 T02160171  RH  075%=      5-min Rain = 0
KSP2 030953Z 20005KT 22/17 A3004 RMK A01 T02160170  RH  075%=      5-min Rain = 0
KSP2 030954Z 20005KT 22/17 A3005 RMK A01 T02160170  RH  075%=      5-min Rain = 0
KSP2 030955Z 20006KT 22/17 A3005 RMK A01 T02150170  RH  076%=      5-min Rain = 0
KSP2 030956Z 20006KT 22/17 A3005 RMK A01 T02150170  RH  076%=      5-min Rain = 0
KSP2 030957Z 20006KT 22/17 A3005 RMK A01 T02150171  RH  076%=      5-min Rain = 0
KSP2 030958Z 20006KT 21/17 A3005 RMK A01 T02140171  RH  076%=      5-min Rain = 0
KSP2 030959Z 20006KT 21/17 A3005 RMK A01 T02140171  RH  076%=      5-min Rain = 0
KSP2 031000Z 20006KT 21/17 A3005 RMK A01 T02140170  RH  076%=      5-min Rain = 0
KSP2 031001Z 20006KT 21/17 A3005 RMK A01 T02140170  RH  076%=      5-min Rain = 0
KSP2 031002Z 20006KT 21/17 A3005 RMK A01 T02130170  RH  076%=      5-min Rain = 0
KSP2 031003Z 20006KT 21/17 A3005 RMK A01 T02140170  RH  076%=      5-min Rain = 0
KSP2 031004Z 20006KT 21/17 A3005 RMK A01 T02140171  RH  076%=      5-min Rain = 0
KSP2 031005Z 20006KT 21/17 A3005 RMK A01 T02140171  RH  076%=      5-min Rain = 0
KSP2 031006Z 19006KT 21/17 A3005 RMK A01 T02130171  RH  077%=      5-min Rain = 0
KSP2 031007Z 19006KT 21/17 A3005 RMK A01 T02140171  RH  076%=      5-min Rain = 0
KSP2 031008Z 19006KT 21/17 A3005 RMK A01 T02140171  RH  076%=      5-min Rain = 0
KSP2 031009Z 19006KT 21/17 A3005 RMK A01 T02140171  RH  076%=      5-min Rain = 0
KSP2 031010Z 19006KT 22/17 A3005 RMK A01 T02150172  RH  077%=      5-min Rain = 0
KSP2 031011Z 20006KT 22/17 A3005 RMK A01 T02150172  RH  077%=      5-min Rain = 0
KSP2 031012Z 20006KT 22/17 A3005 RMK A01 T02150173  RH  077%=      5-min Rain = 0
KSP2 031013Z 20006KT 22/17 A3005 RMK A01 T02150173  RH  077%=      5-min Rain = 0
KSP2 031014Z 20006KT 22/17 A3005 RMK A01 T02150173  RH  077%=      5-min Rain = 0
KSP2 031015Z 20005KT 22/17 A3005 RMK A01 T02150173  RH  077%=      5-min Rain = 0
KSP2 031016Z 20005KT 22/17 A3005 RMK A01 T02150174  RH  077%=      5-min Rain = 0
KSP2 031017Z 20005KT 22/17 A3005 RMK A01 T02150174  RH  077%=      5-min Rain = 0
KSP2 031018Z 20005KT 22/18 A3005 RMK A01 T02160175  RH  077%=      5-min Rain = 0
KSP2 031019Z 20005KT 22/18 A3005 RMK A01 T02160175  RH  077%=      5-min Rain = 0
KSP2 031020Z 20005KT 22/18 A3005 RMK A01 T02170175  RH  077%=      5-min Rain = 0
KSP2 031021Z 19005KT 22/18 A3005 RMK A01 T02170175  RH  077%=      5-min Rain = 0
KSP2 031022Z 19005KT 22/18 A3005 RMK A01 T02180176  RH  077%=      5-min Rain = 0
KSP2 031023Z 19005KT 22/18 A3005 RMK A01 T02180175  RH  077%=      5-min Rain = 0
KSP2 031024Z 19005KT 22/18 A3005 RMK A01 T02170175  RH  077%=      5-min Rain = 0
KSP2 031025Z 19005KT 22/18 A3005 RMK A01 T02180175  RH  077%=      5-min Rain = 0
KSP2 031026Z 19005KT 22/18 A3005 RMK A01 T02170175  RH  077%=      5-min Rain = 0
KSP2 031027Z 19005KT 22/18 A3005 RMK A01 T02180175  RH  077%=      5-min Rain = 0
KSP2 031028Z 19005KT 22/18 A3005 RMK A01 T02180175  RH  077%=      5-min Rain = 0
KSP2 031029Z 19005KT 22/18 A3006 RMK A01 T02180175  RH  077%=      5-min Rain = 0
KSP2 031030Z 19005KT 22/18 A3006 RMK A01 T02180175  RH  077%=      5-min Rain = 0
KSP2 031031Z 18004KT 22/18 A3006 RMK A01 T02180175  RH  077%=      5-min Rain = 0
KSP2 031032Z 18004KT 22/18 A3006 RMK A01 T02170175  RH  077%=      5-min Rain = 0
KSP2 031033Z 18004KT 22/18 A3006 RMK A01 T02170175  RH  077%=      5-min Rain = 0
KSP2 031034Z 18004KT 22/18 A3006 RMK A01 T02170175  RH  077%=      5-min Rain = 0
KSP2 031035Z 18004KT 22/17 A3006 RMK A01 T02170174  RH  077%=      5-min Rain = 0
KSP2 031036Z 18003KT 22/17 A3006 RMK A01 T02160174  RH  077%=      5-min Rain = 0
KSP2 031037Z 18003KT 22/17 A3006 RMK A01 T02170174  RH  077%=      5-min Rain = 0
KSP2 031038Z 18003KT 22/18 A3006 RMK A01 T02170175  RH  077%=      5-min Rain = 0
KSP2 031039Z 17003KT 22/17 A3006 RMK A01 T02160174  RH  077%=      5-min Rain = 0
KSP2 031040Z 18003KT 22/18 A3006 RMK A01 T02170175  RH  077%=      5-min Rain = 0
KSP2 031041Z 18002KT 22/17 A3006 RMK A01 T02160174  RH  077%=      5-min Rain = 0
KSP2 031042Z 18002KT 22/17 A3006 RMK A01 T02160174  RH  077%=      5-min Rain = 0
KSP2 031043Z 18002KT 22/17 A3006 RMK A01 T02150173  RH  077%=      5-min Rain = 0
KSP2 031044Z 18002KT 22/17 A3006 RMK A01 T02150174  RH  077%=      5-min Rain = 0
KSP2 031045Z 18003KT 21/17 A3006 RMK A01 T02140174  RH  078%=      5-min Rain = 0
KSP2 031046Z 18003KT 21/17 A3006 RMK A01 T02140174  RH  078%=      5-min Rain = 0
KSP2 031047Z 19003KT 21/17 A3006 RMK A01 T02140174  RH  078%=      5-min Rain = 0
KSP2 031048Z 19003KT 21/17 A3006 RMK A01 T02140174  RH  078%=      5-min Rain = 0
KSP2 031049Z 19003KT 21/17 A3006 RMK A01 T02140174  RH  078%=      5-min Rain = 0
KSP2 031050Z 19004KT 21/17 A3006 RMK A01 T02140174  RH  078%=      5-min Rain = 0
KSP2 031051Z 19004KT 21/17 A3006 RMK A01 T02140174  RH  078%=      5-min Rain = 0
KSP2 031052Z 19004KT 21/17 A3007 RMK A01 T02140173  RH  078%=      5-min Rain = 0
KSP2 031053Z 19004KT 21/17 A3007 RMK A01 T02130173  RH  078%=      5-min Rain = 0
KSP2 031054Z 19004KT 21/17 A3007 RMK A01 T02130172  RH  078%=      5-min Rain = 0
KSP2 031055Z 20004KT 21/17 A3007 RMK A01 T02120172  RH  078%=      5-min Rain = 0
KSP2 031056Z 20004KT 21/17 A3007 RMK A01 T02110172  RH  078%=      5-min Rain = 0
KSP2 031057Z 20004KT 21/17 A3007 RMK A01 T02100171  RH  078%=      5-min Rain = 0
KSP2 031058Z 20004KT 21/17 A3007 RMK A01 T02100172  RH  079%=      5-min Rain = 0
KSP2 031059Z 20004KT 21/17 A3007 RMK A01 T02100172  RH  079%=      5-min Rain = 0
KSP2 031100Z 20003KT 21/17 A3007 RMK A01 T02090172  RH  079%=      5-min Rain = 0
KSP2 031101Z 20003KT 21/17 A3007 RMK A01 T02090172  RH  079%=      5-min Rain = 0
KSP2 031102Z 21003KT 21/17 A3007 RMK A01 T02090172  RH  079%=      5-min Rain = 0
KSP2 031103Z 21003KT 21/17 A3007 RMK A01 T02090172  RH  079%=      5-min Rain = 0
KSP2 031104Z 21003KT 21/17 A3007 RMK A01 T02090172  RH  079%=      5-min Rain = 0
KSP2 031105Z 22002KT 21/17 A3007 RMK A01 T02080171  RH  079%=      5-min Rain = 0
KSP2 031106Z 23002KT 21/17 A3007 RMK A01 T02080171  RH  080%=      5-min Rain = 0
KSP2 031107Z 24002KT 21/17 A3007 RMK A01 T02080171  RH  080%=      5-min Rain = 0
KSP2 031108Z 25002KT 21/17 A3007 RMK A01 T02070171  RH  080%=      5-min Rain = 0
KSP2 031109Z 25002KT 21/17 A3007 RMK A01 T02080171  RH  080%=      5-min Rain = 0
KSP2 031110Z 25002KT 21/17 A3007 RMK A01 T02080171  RH  079%=      5-min Rain = 0
KSP2 031111Z 25002KT 21/17 A3007 RMK A01 T02080171  RH  079%=      5-min Rain = 0
KSP2 031112Z 24003KT 21/17 A3007 RMK A01 T02090172  RH  080%=      5-min Rain = 0
KSP2 031113Z 25003KT 21/17 A3007 RMK A01 T02090172  RH  080%=      5-min Rain = 0
KSP2 031114Z 25003KT 21/17 A3007 RMK A01 T02090172  RH  079%=      5-min Rain = 0
KSP2 031115Z 25002KT 21/17 A3007 RMK A01 T02090172  RH  080%=      5-min Rain = 0
KSP2 031116Z 25002KT 21/17 A3007 RMK A01 T02090172  RH  079%=      5-min Rain = 0
KSP2 031117Z 26002KT 21/17 A3007 RMK A01 T02090172  RH  079%=      5-min Rain = 0
KSP2 031118Z 25001KT 21/17 A3007 RMK A01 T02090172  RH  079%=      5-min Rain = 0
KSP2 031119Z 25002KT 21/17 A3007 RMK A01 T02090171  RH  079%=      5-min Rain = 0
KSP2 031120Z 25001KT 21/17 A3007 RMK A01 T02090171  RH  079%=      5-min Rain = 0
KSP2 031121Z 25001KT 21/17 A3007 RMK A01 T02090171  RH  079%=      5-min Rain = 0
KSP2 031122Z 25001KT 21/17 A3007 RMK A01 T02080171  RH  079%=      5-min Rain = 0
KSP2 031123Z 25001KT 21/17 A3007 RMK A01 T02080171  RH  079%=      5-min Rain = 0
KSP2 031124Z 25000KT 21/17 A3007 RMK A01 T02080172  RH  080%=      5-min Rain = 0
KSP2 031125Z 25000KT 21/17 A3007 RMK A01 T02070172  RH  080%=      5-min Rain = 0
KSP2 031126Z 00000KT 21/17 A3007 RMK A01 T02070171  RH  080%=      5-min Rain = 0
KSP2 031127Z 00000KT 21/17 A3007 RMK A01 T02070171  RH  080%=      5-min Rain = 0
KSP2 031128Z 00000KT 21/17 A3007 RMK A01 T02060172  RH  081%=      5-min Rain = 0
KSP2 031129Z 00000KT 21/17 A3007 RMK A01 T02060172  RH  081%=      5-min Rain = 0
KSP2 031130Z 00000KT 21/17 A3007 RMK A01 T02060171  RH  080%=      5-min Rain = 0
KSP2 031131Z 00000KT 21/17 A3007 RMK A01 T02050171  RH  081%=      5-min Rain = 0
KSP2 031132Z 00000KT 20/17 A3007 RMK A01 T02040171  RH  081%=      5-min Rain = 0
KSP2 031133Z 00000KT 20/17 A3007 RMK A01 T02040171  RH  081%=      5-min Rain = 0
KSP2 031134Z 00000KT 20/17 A3007 RMK A01 T02030172  RH  082%=      5-min Rain = 0
KSP2 031135Z 00000KT 20/17 A3007 RMK A01 T02030170  RH  081%=      5-min Rain = 0
KSP2 031136Z 00000KT 20/17 A3007 RMK A01 T02030165  RH  079%=      5-min Rain = 0
KSP2 031137Z 00000KT 20/17 A3007 RMK A01 T02020167  RH  080%=      5-min Rain = 0
KSP2 031138Z 25000KT 20/17 A3007 RMK A01 T02010170  RH  082%=      5-min Rain = 0
KSP2 031139Z 25001KT 20/17 A3007 RMK A01 T02010171  RH  083%=      5-min Rain = 0
KSP2 031140Z 25000KT 20/17 A3007 RMK A01 T02010171  RH  083%=      5-min Rain = 0
KSP2 031141Z 25000KT 20/17 A3007 RMK A01 T02010171  RH  083%=      5-min Rain = 0
KSP2 031142Z 25000KT 20/17 A3007 RMK A01 T02010168  RH  081%=      5-min Rain = 0
KSP2 031143Z 25000KT 20/17 A3007 RMK A01 T02010171  RH  083%=      5-min Rain = 0
KSP2 031144Z 25001KT 20/17 A3007 RMK A01 T02000169  RH  082%=      5-min Rain = 0
KSP2 031145Z 25001KT 20/17 A3008 RMK A01 T02000171  RH  084%=      5-min Rain = 0
KSP2 031146Z 25001KT 20/17 A3008 RMK A01 T02000172  RH  084%=      5-min Rain = 0
KSP2 031147Z 25001KT 20/17 A3008 RMK A01 T02010171  RH  083%=      5-min Rain = 0
KSP2 031148Z 25001KT 20/17 A3008 RMK A01 T02010170  RH  082%=      5-min Rain = 0
KSP2 031149Z 25001KT 20/17 A3008 RMK A01 T02020168  RH  081%=      5-min Rain = 0
KSP2 031150Z 25001KT 20/17 A3008 RMK A01 T02010169  RH  081%=      5-min Rain = 0
KSP2 031151Z 25001KT 20/17 A3008 RMK A01 T02010169  RH  082%=      5-min Rain = 0
KSP2 031152Z 25000KT 20/17 A3008 RMK A01 T02010169  RH  082%=      5-min Rain = 0
KSP2 031153Z 00000KT 20/17 A3008 RMK A01 T02010168  RH  082%=      5-min Rain = 0
KSP2 031154Z 00000KT 20/17 A3008 RMK A01 T02000165  RH  081%=      5-min Rain = 0
KSP2 031155Z 15001KT 20/17 A3008 RMK A01 T01990165  RH  081%=      5-min Rain = 0
KSP2 031156Z 15002KT 20/17 A3008 RMK A01 T01990166  RH  081%=      5-min Rain = 0
KSP2 031157Z 15002KT 20/17 A3008 RMK A01 T01980165  RH  082%=      5-min Rain = 0
KSP2 031158Z 15002KT 20/16 A3008 RMK A01 T01970164  RH  082%=      5-min Rain = 0
KSP2 031159Z 16002KT 20/16 A3008 RMK A01 T01960164  RH  081%=      5-min Rain = 0
KSP2 031200Z 16002KT 20/16 A3008 RMK A01 T01960164  RH  082%=      5-min Rain = 0
KSP2 031201Z 17002KT 20/16 A3008 RMK A01 T01960164  RH  082%=      5-min Rain = 0
KSP2 031202Z 17002KT 20/17 A3008 RMK A01 T01960166  RH  082%=      5-min Rain = 0
KSP2 031203Z 17002KT 20/17 A3008 RMK A01 T01960167  RH  083%=      5-min Rain = 0
KSP2 031204Z 16002KT 20/17 A3008 RMK A01 T01970167  RH  083%=      5-min Rain = 0
KSP2 031205Z 17002KT 20/17 A3008 RMK A01 T01980168  RH  083%=      5-min Rain = 0
KSP2 031206Z 16001KT 20/17 A3008 RMK A01 T01990168  RH  083%=      5-min Rain = 0
KSP2 031207Z 15002KT 20/17 A3008 RMK A01 T01990168  RH  082%=      5-min Rain = 0
KSP2 031208Z 15002KT 20/17 A3008 RMK A01 T02000166  RH  081%=      5-min Rain = 0
KSP2 031209Z 16001KT 20/17 A3008 RMK A01 T02000166  RH  080%=      5-min Rain = 0
KSP2 031210Z 14002KT 20/17 A3008 RMK A01 T02010168  RH  081%=      5-min Rain = 0
KSP2 031211Z 15002KT 20/17 A3008 RMK A01 T02020168  RH  081%=      5-min Rain = 0
KSP2 031212Z 15002KT 20/17 A3008 RMK A01 T02030168  RH  080%=      5-min Rain = 0
KSP2 031213Z 15002KT 20/17 A3008 RMK A01 T02030168  RH  080%=      5-min Rain = 0
KSP2 031214Z 15002KT 20/17 A3008 RMK A01 T02040168  RH  080%=      5-min Rain = 0
KSP2 031215Z 15002KT 20/17 A3008 RMK A01 T02040168  RH  080%=      5-min Rain = 0
KSP2 031216Z 15002KT 20/17 A3008 RMK A01 T02040168  RH  080%=      5-min Rain = 0
KSP2 031217Z 15002KT 21/17 A3008 RMK A01 T02050169  RH  080%=      5-min Rain = 0
KSP2 031218Z 15002KT 21/17 A3008 RMK A01 T02050169  RH  080%=      5-min Rain = 0
KSP2 031219Z 14002KT 21/17 A3008 RMK A01 T02060169  RH  079%=      5-min Rain = 0
KSP2 031220Z 14002KT 21/17 A3008 RMK A01 T02060169  RH  079%=      5-min Rain = 0
KSP2 031221Z 13001KT 21/17 A3008 RMK A01 T02070169  RH  079%=      5-min Rain = 0
KSP2 031222Z 13001KT 21/17 A3008 RMK A01 T02080168  RH  078%=      5-min Rain = 0
KSP2 031223Z 14001KT 21/17 A3008 RMK A01 T02090169  RH  078%=      5-min Rain = 0
KSP2 031224Z 14001KT 21/17 A3008 RMK A01 T02100169  RH  077%=      5-min Rain = 0
KSP2 031225Z 14001KT 21/17 A3008 RMK A01 T02120169  RH  077%=      5-min Rain = 0
KSP2 031226Z 14001KT 21/17 A3008 RMK A01 T02130170  RH  077%=      5-min Rain = 0
KSP2 031227Z 14001KT 21/17 A3008 RMK A01 T02130170  RH  076%=      5-min Rain = 0
KSP2 031228Z 14000KT 21/17 A3008 RMK A01 T02140171  RH  077%=      5-min Rain = 0
KSP2 031229Z 00000KT 22/17 A3008 RMK A01 T02150173  RH  077%=      5-min Rain = 0
KSP2 031230Z 00000KT 22/17 A3008 RMK A01 T02150174  RH  077%=      5-min Rain = 0
KSP2 031231Z 00000KT 22/18 A3008 RMK A01 T02160175  RH  077%=      5-min Rain = 0
KSP2 031232Z 12000KT 22/18 A3008 RMK A01 T02170175  RH  077%=      5-min Rain = 0
KSP2 031233Z 12001KT 22/18 A3009 RMK A01 T02190175  RH  076%=      5-min Rain = 0
KSP2 031234Z 12002KT 22/17 A3009 RMK A01 T02200174  RH  075%=      5-min Rain = 0
KSP2 031235Z 12002KT 22/18 A3009 RMK A01 T02210175  RH  075%=      5-min Rain = 0
KSP2 031236Z 12002KT 22/18 A3009 RMK A01 T02220177  RH  076%=      5-min Rain = 0
KSP2 031237Z 13002KT 22/18 A3009 RMK A01 T02230178  RH  076%=      5-min Rain = 0
KSP2 031238Z 13003KT 23/18 A3009 RMK A01 T02250178  RH  075%=      5-min Rain = 0
KSP2 031239Z 14002KT 23/18 A3009 RMK A01 T02270179  RH  074%=      5-min Rain = 0
KSP2 031240Z 13002KT 23/18 A3009 RMK A01 T02290179  RH  073%=      5-min Rain = 0
KSP2 031241Z 13002KT 23/18 A3009 RMK A01 T02310179  RH  073%=      5-min Rain = 0
KSP2 031242Z 13002KT 23/18 A3009 RMK A01 T02330180  RH  072%=      5-min Rain = 0
KSP2 031243Z 13003KT 23/18 A3009 RMK A01 T02340180  RH  071%=      5-min Rain = 0
KSP2 031244Z 12003KT 24/18 A3009 RMK A01 T02360180  RH  071%=      5-min Rain = 0
KSP2 031245Z 13003KT 24/18 A3009 RMK A01 T02370180  RH  071%=      5-min Rain = 0
KSP2 031246Z 13003KT 24/18 A3009 RMK A01 T02380180  RH  070%=      5-min Rain = 0
KSP2 031247Z 13004KT 24/18 A3009 RMK A01 T02390180  RH  070%=      5-min Rain = 0
KSP2 031248Z 13004KT 24/18 A3009 RMK A01 T02390180  RH  069%=      5-min Rain = 0
KSP2 031249Z 14004KT 24/18 A3009 RMK A01 T02400180  RH  069%=      5-min Rain = 0
KSP2 031250Z 13004KT 24/18 A3009 RMK A01 T02410180  RH  069%=      5-min Rain = 0
KSP2 031251Z 14004KT 24/18 A3009 RMK A01 T02420180  RH  068%=      5-min Rain = 0
KSP2 031252Z 15004KT 24/18 A3009 RMK A01 T02430179  RH  068%=      5-min Rain = 0
KSP2 031253Z 14004KT 24/18 A3009 RMK A01 T02430178  RH  067%=      5-min Rain = 0
KSP2 031254Z 15004KT 24/18 A3009 RMK A01 T02440179  RH  067%=      5-min Rain = 0
KSP2 031255Z 14005KT 25/18 A3009 RMK A01 T02450179  RH  067%=      5-min Rain = 0
KSP2 031256Z 14004KT 25/18 A3009 RMK A01 T02450178  RH  066%=      5-min Rain = 0
KSP2 031257Z 15003KT 25/18 A3009 RMK A01 T02460179  RH  066%=      5-min Rain = 0
KSP2 031258Z 15003KT 25/18 A3009 RMK A01 T02470180  RH  066%=      5-min Rain = 0
KSP2 031259Z 14003KT 25/18 A3009 RMK A01 T02480180  RH  066%=      5-min Rain = 0
KSP2 031300Z 14003KT 25/18 A3009 RMK A01 T02480179  RH  065%=      5-min Rain = 0
KSP2 031301Z 14004KT 25/18 A3009 RMK A01 T02490178  RH  065%=      5-min Rain = 0
KSP2 031302Z 13005KT 25/18 A3009 RMK A01 T02490176  RH  064%=      5-min Rain = 0
KSP2 031303Z 13004KT 25/18 A3009 RMK A01 T02490176  RH  064%=      5-min Rain = 0
KSP2 031304Z 14004KT 25/18 A3009 RMK A01 T02500177  RH  064%=      5-min Rain = 0
KSP2 031305Z 14003KT 25/18 A3009 RMK A01 T02500178  RH  064%=      5-min Rain = 0
KSP2 031306Z 14005KT 25/18 A3009 RMK A01 T02500178  RH  064%=      5-min Rain = 0
KSP2 031307Z 14005KT 25/18 A3009 RMK A01 T02510179  RH  064%=      5-min Rain = 0
KSP2 031308Z 14004KT 25/18 A3009 RMK A01 T02510179  RH  064%=      5-min Rain = 0
KSP2 031309Z 14004KT 25/18 A3009 RMK A01 T02510179  RH  064%=      5-min Rain = 0
KSP2 031310Z 14004KT 25/18 A3009 RMK A01 T02510178  RH  064%=      5-min Rain = 0
KSP2 031311Z 14004KT 25/18 A3009 RMK A01 T02520178  RH  064%=      5-min Rain = 0
KSP2 031312Z 14005KT 25/18 A3009 RMK A01 T02530178  RH  063%=      5-min Rain = 0
KSP2 031313Z 14005KT 25/18 A3009 RMK A01 T02540177  RH  062%=      5-min Rain = 0
KSP2 031314Z 13004KT 25/18 A3009 RMK A01 T02540177  RH  062%=      5-min Rain = 0
KSP2 031315Z 14004KT 25/18 A3009 RMK A01 T02540176  RH  062%=      5-min Rain = 0
KSP2 031316Z 14004KT 25/18 A3009 RMK A01 T02540176  RH  062%=      5-min Rain = 0
KSP2 031317Z 13004KT 26/18 A3009 RMK A01 T02550176  RH  062%=      5-min Rain = 0
KSP2 031318Z 14005KT 26/18 A3009 RMK A01 T02560175  RH  061%=      5-min Rain = 0
KSP2 031319Z 13004KT 26/18 A3009 RMK A01 T02570176  RH  061%=      5-min Rain = 0
KSP2 031320Z 14004KT 26/18 A301 RMK A01 T02570176  RH  061%=      5-min Rain = 0
KSP2 031321Z 15004KT 26/18 A301 RMK A01 T02580176  RH  061%=      5-min Rain = 0
KSP2 031322Z 15004KT 26/18 A301 RMK A01 T02580175  RH  060%=      5-min Rain = 0
KSP2 031323Z 14003KT 26/18 A301 RMK A01 T02590176  RH  060%=      5-min Rain = 0
KSP2 031324Z 14003KT 26/18 A301 RMK A01 T02590177  RH  060%=      5-min Rain = 0
KSP2 031325Z 15004KT 26/18 A301 RMK A01 T02600176  RH  060%=      5-min Rain = 0
KSP2 031326Z 14004KT 26/18 A301 RMK A01 T02620176  RH  059%=      5-min Rain = 0
KSP2 031327Z 14006KT 26/18 A301 RMK A01 T02620176  RH  059%=      5-min Rain = 0
KSP2 031328Z 14005KT 26/18 A301 RMK A01 T02630177  RH  059%=      5-min Rain = 0
KSP2 031329Z 14006KT 26/18 A301 RMK A01 T02630176  RH  059%=      5-min Rain = 0
KSP2 031330Z 16006KT 26/18 A301 RMK A01 T02640176  RH  059%=      5-min Rain = 0
KSP2 031331Z 17007KT 26/17 A301 RMK A01 T02640173  RH  057%=      5-min Rain = 0
KSP2 031332Z 16006KT 26/17 A301 RMK A01 T02640174  RH  058%=      5-min Rain = 0
KSP2 031333Z 16006KT 26/17 A301 RMK A01 T02640174  RH  058%=      5-min Rain = 0
KSP2 031334Z 16006KT 26/17 A301 RMK A01 T02640173  RH  057%=      5-min Rain = 0
KSP2 031335Z 16005KT 26/17 A301 RMK A01 T02640173  RH  057%=      5-min Rain = 0
KSP2 031336Z 17005KT 27/17 A301 RMK A01 T02660172  RH  056%=      5-min Rain = 0
KSP2 031337Z 16007KT 27/17 A301 RMK A01 T02660170  RH  056%=      5-min Rain = 0
KSP2 031338Z 17006KT 27/17 A301 RMK A01 T02660170  RH  056%=      5-min Rain = 0
KSP2 031339Z 16006KT 27/17 A301 RMK A01 T02670171  RH  056%=      5-min Rain = 0
KSP2 031340Z 15007KT 27/17 A301 RMK A01 T02670171  RH  055%=      5-min Rain = 0
KSP2 031341Z 15006KT 27/17 A3011 RMK A01 T02680171  RH  055%=      5-min Rain = 0
KSP2 031342Z 15006KT 27/17 A3011 RMK A01 T02690172  RH  055%=      5-min Rain = 0
KSP2 031343Z 17006KT 27/17 A3011 RMK A01 T02690173  RH  056%=      5-min Rain = 0
KSP2 031344Z 17006KT 27/17 A3011 RMK A01 T02710171  RH  055%=      5-min Rain = 0
KSP2 031345Z 17006KT 27/17 A3011 RMK A01 T02700172  RH  055%=      5-min Rain = 0
KSP2 031346Z 16006KT 27/17 A3011 RMK A01 T02700174  RH  055%=      5-min Rain = 0
KSP2 031347Z 15007KT 27/17 A3011 RMK A01 T02700173  RH  055%=      5-min Rain = 0
KSP2 031348Z 15006KT 27/17 A3011 RMK A01 T02710174  RH  055%=      5-min Rain = 0
KSP2 031349Z 15005KT 27/18 A3011 RMK A01 T02710175  RH  055%=      5-min Rain = 0
KSP2 031350Z 15005KT 27/18 A3011 RMK A01 T02730175  RH  055%=      5-min Rain = 0
KSP2 031351Z 17006KT 27/17 A3011 RMK A01 T02740173  RH  054%=      5-min Rain = 0
KSP2 031352Z 17006KT 27/17 A3011 RMK A01 T02740168  RH  052%=      5-min Rain = 0
KSP2 031353Z 16006KT 27/17 A3011 RMK A01 T02740169  RH  053%=      5-min Rain = 0
KSP2 031354Z 15006KT 27/17 A3011 RMK A01 T02740168  RH  052%=      5-min Rain = 0
KSP2 031355Z 16006KT 28/17 A3011 RMK A01 T02750167  RH  052%=      5-min Rain = 0
KSP2 031356Z 17007KT 28/17 A3011 RMK A01 T02750169  RH  052%=      5-min Rain = 0
KSP2 031357Z 15006KT 28/17 A3011 RMK A01 T02750169  RH  052%=      5-min Rain = 0
KSP2 031358Z 16005KT 28/17 A3011 RMK A01 T02750169  RH  052%=      5-min Rain = 0
KSP2 031359Z 16005KT 28/17 A3011 RMK A01 T02750170  RH  052%=      5-min Rain = 0
KSP2 031400Z 15005KT 28/17 A3011 RMK A01 T02760169  RH  052%=      5-min Rain = 0
KSP2 031401Z 15007KT 28/17 A3011 RMK A01 T02770169  RH  052%=      5-min Rain = 0
KSP2 031402Z 14005KT 28/17 A3011 RMK A01 T02780168  RH  051%=      5-min Rain = 0
KSP2 031403Z 14005KT 28/17 A3011 RMK A01 T02780168  RH  051%=      5-min Rain = 0
KSP2 031404Z 14006KT 28/17 A3011 RMK A01 T02780169  RH  052%=      5-min Rain = 0
KSP2 031405Z 14006KT 28/17 A3011 RMK A01 T02810167  RH  050%=      5-min Rain = 0
KSP2 031406Z 15006KT 28/17 A3011 RMK A01 T02830168  RH  050%=      5-min Rain = 0
KSP2 031407Z 15007KT 29/17 A3011 RMK A01 T02850166  RH  049%=      5-min Rain = 0
KSP2 031408Z 18007KT 28/16 A3011 RMK A01 T02840164  RH  048%=      5-min Rain = 0
KSP2 031409Z 18005KT 28/16 A3011 RMK A01 T02840160  RH  047%=      5-min Rain = 0
KSP2 031410Z 17006KT 28/16 A3011 RMK A01 T02840164  RH  048%=      5-min Rain = 0
KSP2 031411Z 16006KT 29/17 A3011 RMK A01 T02850165  RH  048%=      5-min Rain = 0
KSP2 031412Z 16005KT 29/16 A3011 RMK A01 T02850163  RH  047%=      5-min Rain = 0
KSP2 031413Z 17005KT 29/16 A3011 RMK A01 T02850161  RH  047%=      5-min Rain = 0
KSP2 031414Z 19007KT 29/16 A3011 RMK A01 T02860158  RH  046%=      5-min Rain = 0
KSP2 031415Z 19007KT 29/16 A3011 RMK A01 T02870159  RH  046%=      5-min Rain = 0
KSP2 031416Z 17006KT 29/16 A3011 RMK A01 T02870160  RH  046%=      5-min Rain = 0
KSP2 031417Z 15006KT 29/16 A3011 RMK A01 T02870160  RH  046%=      5-min Rain = 0
KSP2 031418Z 15006KT 29/16 A3011 RMK A01 T02860158  RH  046%=      5-min Rain = 0
KSP2 031419Z 16005KT 29/16 A3011 RMK A01 T02870159  RH  046%=      5-min Rain = 0
KSP2 031420Z 18007KT 29/16 A3011 RMK A01 T02900159  RH  045%=      5-min Rain = 0
KSP2 031421Z 18005KT 29/16 A3011 RMK A01 T02900158  RH  045%=      5-min Rain = 0
KSP2 031422Z 17008KT 29/16 A3011 RMK A01 T02900159  RH  045%=      5-min Rain = 0
KSP2 031423Z 17008KT 29/16 A3011 RMK A01 T02900159  RH  045%=      5-min Rain = 0
KSP2 031424Z 18006KT 29/16 A3011 RMK A01 T02900160  RH  045%=      5-min Rain = 0
KSP2 031425Z 17008KT 29/16 A3011 RMK A01 T02910159  RH  045%=      5-min Rain = 0
KSP2 031426Z 17007KT 29/16 A3011 RMK A01 T02920157  RH  044%=      5-min Rain = 0
KSP2 031427Z 17007KT 29/16 A3011 RMK A01 T02930158  RH  044%=      5-min Rain = 0
KSP2 031428Z 18007KT 29/16 A3011 RMK A01 T02930159  RH  044%=      5-min Rain = 0
KSP2 031429Z 16007KT 29/16 A3011 RMK A01 T02940159  RH  044%=      5-min Rain = 0
KSP2 031430Z 17007KT 29/16 A3011 RMK A01 T02940159  RH  044%=      5-min Rain = 0
KSP2 031431Z 16007KT 29/16 A3011 RMK A01 T02930160  RH  044%=      5-min Rain = 0
KSP2 031432Z 16008KT 29/16 A3011 RMK A01 T02940159  RH  044%=      5-min Rain = 0
KSP2 031433Z 16008KT 30/16 A3011 RMK A01 T02960159  RH  044%=      5-min Rain = 0
KSP2 031434Z 16008KT 30/16 A3011 RMK A01 T02950159  RH  044%=      5-min Rain = 0
KSP2 031435Z 17008KT 30/16 A3012 RMK A01 T02950158  RH  043%=      5-min Rain = 0
KSP2 031436Z 17007KT 30/16 A3012 RMK A01 T02950157  RH  043%=      5-min Rain = 0
KSP2 031437Z 17007KT 29/16 A3012 RMK A01 T02930157  RH  044%=      5-min Rain = 0
KSP2 031438Z 15007KT 29/16 A3012 RMK A01 T02940158  RH  044%=      5-min Rain = 0
KSP2 031439Z 15007KT 30/16 A3012 RMK A01 T02950158  RH  044%=      5-min Rain = 0
KSP2 031440Z 15008KT 30/16 A3012 RMK A01 T02960159  RH  043%=      5-min Rain = 0
KSP2 031441Z 17008KT 30/16 A3012 RMK A01 T02980159  RH  043%=      5-min Rain = 0
KSP2 031442Z 17009KT 30/16 A3012 RMK A01 T02980158  RH  043%=      5-min Rain = 0
KSP2 031443Z 17007KT 30/16 A3012 RMK A01 T02980156  RH  042%=      5-min Rain = 0
KSP2 031444Z 18005KT 30/16 A3012 RMK A01 T02970156  RH  042%=      5-min Rain = 0
KSP2 031445Z 18006KT 30/16 A3012 RMK A01 T02960157  RH  043%=      5-min Rain = 0
KSP2 031446Z 19006KT 30/16 A3012 RMK A01 T02960157  RH  043%=      5-min Rain = 0
KSP2 031447Z 17008KT 30/16 A3012 RMK A01 T02980158  RH  043%=      5-min Rain = 0
KSP2 031448Z 17008KT 30/16 A3012 RMK A01 T03000155  RH  041%=      5-min Rain = 0
KSP2 031449Z 19008KT 30/16 A3012 RMK A01 T02990156  RH  042%=      5-min Rain = 0
KSP2 031450Z 16007KT 30/16 A3012 RMK A01 T02990157  RH  042%=      5-min Rain = 0
KSP2 031451Z 18008KT 30/16 A3011 RMK A01 T03010156  RH  041%=      5-min Rain = 0
KSP2 031452Z 20005KT 30/16 A3011 RMK A01 T03010157  RH  042%=      5-min Rain = 0
KSP2 031453Z 19008G13KT 30/16 A3011 RMK A01 T03030158  RH  041%=      5-min Rain = 0
KSP2 031454Z 17010KT 30/15 A3011 RMK A01 T03040154  RH  040%=      5-min Rain = 0
KSP2 031455Z 18008KT 30/15 A3011 RMK A01 T03040153  RH  040%=      5-min Rain = 0
KSP2 031456Z 19010KT 31/15 A3011 RMK A01 T03050154  RH  040%=      5-min Rain = 0
KSP2 031457Z 19011KT 31/15 A3011 RMK A01 T03060152  RH  039%=      5-min Rain = 0
KSP2 031458Z 17009KT 31/15 A3011 RMK A01 T03050152  RH  040%=      5-min Rain = 0
KSP2 031459Z 18008KT 31/15 A3011 RMK A01 T03050153  RH  040%=      5-min Rain = 0
KSP2 031500Z 17006KT 30/15 A3011 RMK A01 T03040153  RH  040%=      5-min Rain = 0
KSP2 031501Z 20009KT 31/15 A3011 RMK A01 T03050154  RH  040%=      5-min Rain = 0
KSP2 031502Z 20011KT 31/16 A3011 RMK A01 T03070155  RH  040%=      5-min Rain = 0
KSP2 031503Z 20011KT 31/16 A3012 RMK A01 T03090155  RH  039%=      5-min Rain = 0
KSP2 031504Z 20007KT 31/15 A3012 RMK A01 T03080154  RH  039%=      5-min Rain = 0
KSP2 031505Z 21006KT 31/16 A3012 RMK A01 T03080156  RH  040%=      5-min Rain = 0
KSP2 031506Z 18007KT 31/16 A3012 RMK A01 T03090155  RH  039%=      5-min Rain = 0
KSP2 031507Z 20008KT 31/15 A3012 RMK A01 T03070154  RH  040%=      5-min Rain = 0
KSP2 031508Z 20007KT 31/16 A3012 RMK A01 T03050155  RH  040%=      5-min Rain = 0
KSP2 031509Z 20006KT 30/15 A3012 RMK A01 T03040154  RH  040%=      5-min Rain = 0
KSP2 031510Z 17009KT 31/16 A3012 RMK A01 T03050155  RH  040%=      5-min Rain = 0
KSP2 031511Z 16008KT 31/15 A3012 RMK A01 T03060154  RH  040%=      5-min Rain = 0
KSP2 031512Z 17006KT 31/15 A3012 RMK A01 T03050153  RH  040%=      5-min Rain = 0
KSP2 031513Z 19006KT 30/15 A3012 RMK A01 T03030153  RH  040%=      5-min Rain = 0
KSP2 031514Z 16008KT 30/15 A3012 RMK A01 T03030154  RH  040%=      5-min Rain = 0
KSP2 031515Z 16008KT 31/15 A3012 RMK A01 T03050153  RH  040%=      5-min Rain = 0
KSP2 031516Z 19008KT 31/15 A3012 RMK A01 T03060154  RH  040%=      5-min Rain = 0
KSP2 031517Z 22009KT 31/16 A3012 RMK A01 T03090155  RH  039%=      5-min Rain = 0
KSP2 031518Z 23007KT 31/15 A3012 RMK A01 T03100153  RH  038%=      5-min Rain = 0
KSP2 031519Z 23007KT 31/15 A3012 RMK A01 T03090152  RH  039%=      5-min Rain = 0
KSP2 031520Z 21005KT 31/15 A3012 RMK A01 T03070151  RH  039%=      5-min Rain = 0
KSP2 031521Z 18008KT 31/15 A3012 RMK A01 T03070152  RH  039%=      5-min Rain = 0
KSP2 031522Z 17009KT 31/15 A3012 RMK A01 T03090153  RH  039%=      5-min Rain = 0
KSP2 031523Z 17009KT 31/15 A3012 RMK A01 T03100153  RH  039%=      5-min Rain = 0
KSP2 031524Z 15009KT 31/15 A3011 RMK A01 T03100152  RH  038%=      5-min Rain = 0
KSP2 031525Z 15007KT 31/15 A3011 RMK A01 T03090152  RH  039%=      5-min Rain = 0
KSP2 031526Z 17009G14KT 31/15 A3011 RMK A01 T03090152  RH  039%=      5-min Rain = 0
KSP2 031527Z 17008KT 31/15 A3011 RMK A01 T03090152  RH  039%=      5-min Rain = 0
KSP2 031528Z 20011KT 31/15 A3011 RMK A01 T03090152  RH  039%=      5-min Rain = 0
KSP2 031529Z 20010KT 31/15 A3011 RMK A01 T03100152  RH  038%=      5-min Rain = 0
KSP2 031530Z 18009KT 31/15 A3012 RMK A01 T03130152  RH  038%=      5-min Rain = 0
KSP2 031531Z 19008KT 31/15 A3012 RMK A01 T03130152  RH  038%=      5-min Rain = 0
KSP2 031532Z 20006KT 31/15 A3012 RMK A01 T03110151  RH  038%=      5-min Rain = 0
KSP2 031533Z 20004KT 31/15 A3012 RMK A01 T03110151  RH  038%=      5-min Rain = 0
KSP2 031534Z 19006KT 31/15 A3012 RMK A01 T03100151  RH  038%=      5-min Rain = 0
KSP2 031535Z 16007KT 31/15 A3011 RMK A01 T03120153  RH  038%=      5-min Rain = 0
KSP2 031536Z 19006KT 32/15 A3012 RMK A01 T03160152  RH  037%=      5-min Rain = 0
KSP2 031537Z 18006KT 32/15 A3012 RMK A01 T03180153  RH  037%=      5-min Rain = 0
KSP2 031538Z 18008KT 32/15 A3012 RMK A01 T03180153  RH  037%=      5-min Rain = 0
KSP2 031539Z 18008KT 32/15 A3012 RMK A01 T03180152  RH  037%=      5-min Rain = 0
KSP2 031540Z 17007KT 32/15 A3012 RMK A01 T03160151  RH  037%=      5-min Rain = 0
KSP2 031541Z 15007KT 31/15 A3012 RMK A01 T03140151  RH  037%=      5-min Rain = 0
KSP2 031542Z 14006KT 31/15 A3012 RMK A01 T03140150  RH  037%=      5-min Rain = 0
KSP2 031543Z 12005KT 32/15 A3012 RMK A01 T03150148  RH  036%=      5-min Rain = 0
KSP2 031544Z 16004KT 32/15 A3012 RMK A01 T03150149  RH  037%=      5-min Rain = 0
KSP2 031545Z 18005KT 32/15 A3012 RMK A01 T03150150  RH  037%=      5-min Rain = 0
KSP2 031546Z 19007KT 31/15 A3012 RMK A01 T03140149  RH  037%=      5-min Rain = 0
KSP2 031547Z 21004KT 31/15 A3012 RMK A01 T03140150  RH  037%=      5-min Rain = 0
KSP2 031548Z 20003KT 31/15 A3012 RMK A01 T03140149  RH  037%=      5-min Rain = 0
KSP2 031549Z 21004KT 31/15 A3012 RMK A01 T03140149  RH  037%=      5-min Rain = 0
KSP2 031550Z 21003KT 31/15 A3012 RMK A01 T03140149  RH  037%=      5-min Rain = 0
KSP2 031551Z 18008KT 32/15 A3012 RMK A01 T03150150  RH  037%=      5-min Rain = 0
KSP2 031552Z 20009KT 32/15 A3012 RMK A01 T03180151  RH  037%=      5-min Rain = 0
KSP2 031553Z 20008KT 32/15 A3012 RMK A01 T03170149  RH  036%=      5-min Rain = 0
KSP2 031554Z 21006KT 32/15 A3012 RMK A01 T03160149  RH  036%=      5-min Rain = 0
KSP2 031555Z 21005KT 32/15 A3012 RMK A01 T03160149  RH  036%=      5-min Rain = 0
KSP2 031556Z 20003KT 32/15 A3012 RMK A01 T03160148  RH  036%=      5-min Rain = 0
KSP2 031557Z 20004KT 32/15 A3012 RMK A01 T03150148  RH  036%=      5-min Rain = 0
KSP2 031558Z 20003KT 31/15 A3012 RMK A01 T03140147  RH  036%=      5-min Rain = 0
KSP2 031559Z 24004KT 31/15 A3012 RMK A01 T03130148  RH  037%=      5-min Rain = 0
KSP2 031600Z 18007KT 31/15 A3012 RMK A01 T03140148  RH  037%=      5-min Rain = 0
KSP2 031601Z 18004KT 31/15 A3012 RMK A01 T03130147  RH  037%=      5-min Rain = 0
KSP2 031602Z 19004KT 31/15 A3012 RMK A01 T03130148  RH  037%=      5-min Rain = 0
KSP2 031603Z 17004KT 31/15 A3012 RMK A01 T03140148  RH  037%=      5-min Rain = 0
KSP2 031604Z 15006KT 32/15 A3012 RMK A01 T03160150  RH  037%=      5-min Rain = 0
KSP2 031605Z 18010KT 32/15 A3012 RMK A01 T03170151  RH  037%=      5-min Rain = 0
KSP2 031606Z 17008KT 32/15 A3012 RMK A01 T03180149  RH  036%=      5-min Rain = 0
KSP2 031607Z 17004KT 31/15 A3012 RMK A01 T03140149  RH  037%=      5-min Rain = 0
KSP2 031608Z 14003KT 31/15 A3012 RMK A01 T03130150  RH  037%=      5-min Rain = 0
KSP2 031609Z 14003KT 32/15 A3012 RMK A01 T03150150  RH  037%=      5-min Rain = 0
KSP2 031610Z 17004KT 32/15 A3012 RMK A01 T03180151  RH  037%=      5-min Rain = 0
KSP2 031611Z 19008KT 32/15 A3012 RMK A01 T03220153  RH  036%=      5-min Rain = 0
KSP2 031612Z 19010KT 32/15 A3012 RMK A01 T03230152  RH  036%=      5-min Rain = 0
KSP2 031613Z 20009KT 32/15 A3012 RMK A01 T03240153  RH  036%=      5-min Rain = 0
KSP2 031614Z 20008KT 33/15 A3012 RMK A01 T03260152  RH  035%=      5-min Rain = 0
KSP2 031615Z 21006KT 33/15 A3012 RMK A01 T03250151  RH  035%=      5-min Rain = 0
KSP2 031616Z 25005KT 32/15 A3012 RMK A01 T03230151  RH  036%=      5-min Rain = 0
KSP2 031617Z 23002KT 32/15 A3012 RMK A01 T03220151  RH  036%=      5-min Rain = 0
KSP2 031618Z 20005KT 32/15 A3012 RMK A01 T03230150  RH  035%=      5-min Rain = 0
KSP2 031619Z 19007KT 32/15 A3012 RMK A01 T03210149  RH  035%=      5-min Rain = 0
KSP2 031620Z 21005KT 32/15 A3012 RMK A01 T03230149  RH  035%=      5-min Rain = 0
KSP2 031621Z 20002KT 32/15 A3012 RMK A01 T03220149  RH  035%=      5-min Rain = 0
KSP2 031622Z 18005KT 32/15 A3012 RMK A01 T03230150  RH  035%=      5-min Rain = 0
KSP2 031623Z 18008KT 33/15 A3012 RMK A01 T03250151  RH  035%=      5-min Rain = 0
KSP2 031624Z 17009KT 32/15 A3012 RMK A01 T03240151  RH  035%=      5-min Rain = 0
KSP2 031625Z 18008KT 33/15 A3012 RMK A01 T03250152  RH  035%=      5-min Rain = 0
KSP2 031626Z 18008KT 33/15 A3012 RMK A01 T03290151  RH  034%=      5-min Rain = 0
KSP2 031627Z 17006KT 33/15 A3012 RMK A01 T03260149  RH  034%=      5-min Rain = 0
KSP2 031628Z 18007KT 33/15 A3012 RMK A01 T03250151  RH  035%=      5-min Rain = 0
KSP2 031629Z 18008KT 33/15 A3012 RMK A01 T03250150  RH  035%=      5-min Rain = 0
KSP2 031630Z 18005KT 33/15 A3012 RMK A01 T03260150  RH  034%=      5-min Rain = 0
KSP2 031631Z 14003KT 33/15 A3012 RMK A01 T03260148  RH  034%=      5-min Rain = 0
KSP2 031632Z 15004G10KT 32/15 A3012 RMK A01 T03230148  RH  035%=      5-min Rain = 0
KSP2 031633Z 20008KT 32/15 A3012 RMK A01 T03210150  RH  036%=      5-min Rain = 0
KSP2 031634Z 22006KT 32/15 A3012 RMK A01 T03220150  RH  035%=      5-min Rain = 0
KSP2 031635Z 20007KT 32/15 A3012 RMK A01 T03220150  RH  035%=      5-min Rain = 0
KSP2 031636Z 20006KT 32/15 A3012 RMK A01 T03220150  RH  035%=      5-min Rain = 0
KSP2 031637Z 19011KT 32/15 A3012 RMK A01 T03230150  RH  035%=      5-min Rain = 0
KSP2 031638Z 19007KT 32/15 A3012 RMK A01 T03240149  RH  035%=      5-min Rain = 0
KSP2 031639Z 20007KT 32/15 A3012 RMK A01 T03230150  RH  035%=      5-min Rain = 0
KSP2 031640Z 21010KT 33/15 A3012 RMK A01 T03250148  RH  034%=      5-min Rain = 0
KSP2 031641Z 22007KT 33/15 A3012 RMK A01 T03270148  RH  034%=      5-min Rain = 0
KSP2 031642Z 21008KT 33/15 A3012 RMK A01 T03270149  RH  034%=      5-min Rain = 0
KSP2 031643Z 19008KT 33/15 A3012 RMK A01 T03290149  RH  034%=      5-min Rain = 0
KSP2 031644Z 15007KT 33/15 A3012 RMK A01 T03280148  RH  034%=      5-min Rain = 0
KSP2 031645Z 15006KT 33/15 A3012 RMK A01 T03290148  RH  034%=      5-min Rain = 0
KSP2 031646Z 15003KT 33/15 A3012 RMK A01 T03290150  RH  034%=      5-min Rain = 0
KSP2 031647Z 10004KT 33/15 A3012 RMK A01 T03330149  RH  033%=      5-min Rain = 0
KSP2 031648Z 11007KT 34/15 A3012 RMK A01 T03350148  RH  033%=      5-min Rain = 0
KSP2 031649Z 16011KT 34/15 A3011 RMK A01 T03360149  RH  032%=      5-min Rain = 0
KSP2 031650Z 19011KT 34/15 A3012 RMK A01 T03370150  RH  032%=      5-min Rain = 0
KSP2 031651Z 19008KT 34/15 A3012 RMK A01 T03350148  RH  032%=      5-min Rain = 0
KSP2 031652Z 21006KT 33/15 A3012 RMK A01 T03330148  RH  033%=      5-min Rain = 0
KSP2 031653Z 22006KT 33/15 A3012 RMK A01 T03310147  RH  033%=      5-min Rain = 0
KSP2 031654Z 20007G12KT 33/15 A3012 RMK A01 T03300148  RH  033%=      5-min Rain = 0
KSP2 031655Z 19010KT 33/15 A3012 RMK A01 T03340148  RH  033%=      5-min Rain = 0
KSP2 031656Z 20010KT 34/15 A3012 RMK A01 T03360147  RH  032%=      5-min Rain = 0
KSP2 031657Z 20007KT 33/15 A3012 RMK A01 T03320145  RH  032%=      5-min Rain = 0
KSP2 031658Z 25006KT 33/14 A3012 RMK A01 T03300144  RH  033%=      5-min Rain = 0
KSP2 031659Z 26007KT 33/15 A3012 RMK A01 T03300145  RH  033%=      5-min Rain = 0
KSP2 031700Z 24005KT 33/15 A3012 RMK A01 T03290145  RH  033%=      5-min Rain = 0
KSP2 031701Z 19003KT 33/14 A3012 RMK A01 T03270143  RH  033%=      5-min Rain = 0
KSP2 031702Z 15006KT 33/15 A3012 RMK A01 T03300147  RH  033%=      5-min Rain = 0
KSP2 031703Z 11006KT 33/15 A3012 RMK A01 T03330145  RH  032%=      5-min Rain = 0
KSP2 031704Z 15008KT 33/15 A3012 RMK A01 T03340147  RH  033%=      5-min Rain = 0
KSP2 031705Z 19007KT 34/15 A3012 RMK A01 T03350147  RH  032%=      5-min Rain = 0
KSP2 031706Z 18009KT 34/15 A3012 RMK A01 T03370147  RH  032%=      5-min Rain = 0
KSP2 031707Z 19008KT 33/15 A3012 RMK A01 T03340145  RH  032%=      5-min Rain = 0
KSP2 031708Z 21011KT 33/14 A3011 RMK A01 T03340143  RH  032%=      5-min Rain = 0
KSP2 031709Z 20010KT 34/14 A3012 RMK A01 T03360144  RH  032%=      5-min Rain = 0
KSP2 031710Z 21007KT 34/14 A3012 RMK A01 T03380144  RH  031%=      5-min Rain = 0
KSP2 031711Z 22008KT 34/14 A3012 RMK A01 T03350143  RH  032%=      5-min Rain = 0
KSP2 031712Z 22007KT 34/15 A3012 RMK A01 T03360146  RH  032%=      5-min Rain = 0
KSP2 031713Z 21006KT 34/15 A3011 RMK A01 T03380146  RH  031%=      5-min Rain = 0
KSP2 031714Z 27003KT 34/14 A3011 RMK A01 T03370144  RH  031%=      5-min Rain = 0
KSP2 031715Z 19004KT 34/15 A3011 RMK A01 T03360145  RH  032%=      5-min Rain = 0
KSP2 031716Z 19012KT 34/15 A3011 RMK A01 T03360146  RH  032%=      5-min Rain = 0
KSP2 031717Z 18010KT 34/15 A3011 RMK A01 T03390147  RH  032%=      5-min Rain = 0
KSP2 031718Z 17009KT 34/15 A3011 RMK A01 T03400146  RH  031%=      5-min Rain = 0
KSP2 031719Z 21011KT 34/15 A3011 RMK A01 T03390147  RH  031%=      5-min Rain = 0
KSP2 031720Z 21010KT 34/15 A3011 RMK A01 T03390146  RH  031%=      5-min Rain = 0
KSP2 031721Z 21007KT 34/15 A3011 RMK A01 T03380147  RH  032%=      5-min Rain = 0
KSP2 031722Z 20006KT 34/15 A3011 RMK A01 T03370146  RH  032%=      5-min Rain = 0
KSP2 031723Z 18007KT 34/15 A3011 RMK A01 T03360145  RH  032%=      5-min Rain = 0
KSP2 031724Z 13010KT 34/14 A3011 RMK A01 T03350142  RH  031%=      5-min Rain = 0
KSP2 031725Z 14006KT 34/14 A3011 RMK A01 T03350136  RH  030%=      5-min Rain = 0
KSP2 031726Z 16004KT 33/14 A3011 RMK A01 T03320136  RH  031%=      5-min Rain = 0
KSP2 031727Z 10004KT 33/14 A3011 RMK A01 T03320137  RH  031%=      5-min Rain = 0
KSP2 031728Z 13007KT 33/14 A3011 RMK A01 T03330138  RH  031%=      5-min Rain = 0
KSP2 031729Z 14006KT 34/14 A3011 RMK A01 T03370136  RH  030%=      5-min Rain = 0
KSP2 031730Z 14006KT 34/14 A3011 RMK A01 T03380135  RH  030%=      5-min Rain = 0
KSP2 031731Z 15007KT 34/14 A3011 RMK A01 T03370140  RH  030%=      5-min Rain = 0
KSP2 031732Z 14005KT 34/14 A3011 RMK A01 T03380140  RH  030%=      5-min Rain = 0
KSP2 031733Z 13006KT 34/14 A3011 RMK A01 T03390140  RH  030%=      5-min Rain = 0
KSP2 031734Z 13007KT 34/14 A3011 RMK A01 T03390140  RH  030%=      5-min Rain = 0
KSP2 031735Z 13005KT 34/14 A3011 RMK A01 T03400139  RH  030%=      5-min Rain = 0
KSP2 031736Z 10006KT 34/14 A3011 RMK A01 T03380140  RH  030%=      5-min Rain = 0
KSP2 031737Z 12011KT 34/14 A3011 RMK A01 T03380143  RH  031%=      5-min Rain = 0
KSP2 031738Z 11010KT 34/14 A3011 RMK A01 T03410143  RH  030%=      5-min Rain = 0
KSP2 031739Z 15012KT 35/15 A3011 RMK A01 T03460145  RH  030%=      5-min Rain = 0
KSP2 031740Z 17014KT 35/14 A3011 RMK A01 T03480143  RH  029%=      5-min Rain = 0
KSP2 031741Z 16012KT 35/14 A3011 RMK A01 T03470142  RH  029%=      5-min Rain = 0
KSP2 031742Z 16008KT 35/14 A3011 RMK A01 T03450140  RH  029%=      5-min Rain = 0
KSP2 031743Z 17008KT 34/14 A3011 RMK A01 T03440142  RH  030%=      5-min Rain = 0
KSP2 031744Z 15006KT 34/14 A3011 RMK A01 T03410140  RH  030%=      5-min Rain = 0
KSP2 031745Z 15005KT 34/14 A3011 RMK A01 T03400140  RH  030%=      5-min Rain = 0
KSP2 031746Z 13006KT 34/14 A3011 RMK A01 T03400140  RH  030%=      5-min Rain = 0
KSP2 031747Z 14007KT 34/14 A3011 RMK A01 T03390136  RH  030%=      5-min Rain = 0
KSP2 031748Z 17007G12KT 34/14 A3011 RMK A01 T03360135  RH  030%=      5-min Rain = 0
KSP2 031749Z 15010KT 34/13 A3011 RMK A01 T03360134  RH  029%=      5-min Rain = 0
KSP2 031750Z 15005KT 34/13 A3011 RMK A01 T03360132  RH  029%=      5-min Rain = 0
KSP2 031751Z 14009KT 34/14 A3011 RMK A01 T03400137  RH  029%=      5-min Rain = 0
KSP2 031752Z 15011KT 35/14 A3011 RMK A01 T03470135  RH  028%=      5-min Rain = 0
KSP2 031753Z 14007KT 34/13 A3011 RMK A01 T03440132  RH  028%=      5-min Rain = 0
KSP2 031754Z 15008KT 34/13 A3011 RMK A01 T03420134  RH  029%=      5-min Rain = 0
KSP2 031755Z 14007KT 34/14 A3011 RMK A01 T03440137  RH  029%=      5-min Rain = 0
KSP2 031756Z 16009KT 35/14 A3011 RMK A01 T03460139  RH  029%=      5-min Rain = 0
KSP2 031757Z 14008KT 35/14 A3011 RMK A01 T03450140  RH  029%=      5-min Rain = 0
KSP2 031758Z 13009KT 35/14 A3011 RMK A01 T03450139  RH  029%=      5-min Rain = 0
KSP2 031759Z 10008KT 35/14 A3011 RMK A01 T03460139  RH  029%=      5-min Rain = 0
KSP2 031800Z 09009KT 35/14 A3011 RMK A01 T03480138  RH  028%=      5-min Rain = 0
KSP2 031801Z 08006KT 35/14 A3011 RMK A01 T03470139  RH  029%=      5-min Rain = 0
KSP2 031802Z 13006KT 35/14 A3011 RMK A01 T03470140  RH  029%=      5-min Rain = 0
KSP2 031803Z 14005KT 35/14 A3011 RMK A01 T03490140  RH  029%=      5-min Rain = 0
KSP2 031804Z 13003KT 35/14 A3011 RMK A01 T03490138  RH  028%=      5-min Rain = 0
KSP2 031805Z 17007KT 35/14 A3011 RMK A01 T03460139  RH  029%=      5-min Rain = 0
KSP2 031806Z 14010KT 35/14 A3011 RMK A01 T03450140  RH  029%=      5-min Rain = 0
KSP2 031807Z 13007G12KT 34/14 A3011 RMK A01 T03430137  RH  029%=      5-min Rain = 0
KSP2 031808Z 13003KT 34/14 A301 RMK A01 T03370136  RH  030%=      5-min Rain = 0
KSP2 031809Z 11005KT 33/14 A301 RMK A01 T03340138  RH  031%=      5-min Rain = 0
KSP2 031810Z 19007KT 34/14 A301 RMK A01 T03370139  RH  030%=      5-min Rain = 0
KSP2 031811Z 18009KT 34/14 A301 RMK A01 T03390135  RH  029%=      5-min Rain = 0
KSP2 031812Z 14012KT 34/14 A301 RMK A01 T03380139  RH  030%=      5-min Rain = 0
KSP2 031813Z 14013G18KT 34/14 A301 RMK A01 T03440140  RH  029%=      5-min Rain = 0
KSP2 031814Z 11005KT 35/14 A301 RMK A01 T03460139  RH  029%=      5-min Rain = 0
KSP2 031815Z 17011KT 35/14 A301 RMK A01 T03450141  RH  029%=      5-min Rain = 0
KSP2 031816Z 17010KT 35/14 A301 RMK A01 T03480141  RH  029%=      5-min Rain = 0
KSP2 031817Z 16011KT 35/14 A301 RMK A01 T03480139  RH  029%=      5-min Rain = 0
KSP2 031818Z 19010KT 35/14 A301 RMK A01 T03480138  RH  028%=      5-min Rain = 0
KSP2 031819Z 20006KT 35/14 A301 RMK A01 T03460136  RH  028%=      5-min Rain = 0
KSP2 031820Z 19006KT 34/13 A301 RMK A01 T03440134  RH  028%=      5-min Rain = 0
KSP2 031821Z 18009G15KT 34/14 A301 RMK A01 T03430137  RH  029%=      5-min Rain = 0
KSP2 031822Z 20012KT 35/14 A301 RMK A01 T03460138  RH  029%=      5-min Rain = 0
KSP2 031823Z 21009KT 35/14 A301 RMK A01 T03470137  RH  028%=      5-min Rain = 0
KSP2 031824Z 22007KT 35/14 A301 RMK A01 T03460138  RH  029%=      5-min Rain = 0
KSP2 031825Z 19003KT 34/14 A301 RMK A01 T03440138  RH  029%=      5-min Rain = 0
KSP2 031826Z 17007KT 35/14 A301 RMK A01 T03450139  RH  029%=      5-min Rain = 0
KSP2 031827Z 17006KT 35/14 A301 RMK A01 T03470139  RH  029%=      5-min Rain = 0
KSP2 031828Z 14005KT 35/14 A3009 RMK A01 T03480142  RH  029%=      5-min Rain = 0
KSP2 031829Z 11006KT 35/14 A301 RMK A01 T03530143  RH  028%=      5-min Rain = 0
KSP2 031830Z 09006KT 35/14 A3009 RMK A01 T03530142  RH  028%=      5-min Rain = 0
KSP2 031831Z 12006KT 35/14 A3009 RMK A01 T03490142  RH  029%=      5-min Rain = 0
KSP2 031832Z 13005KT 35/14 A3009 RMK A01 T03470141  RH  029%=      5-min Rain = 0
KSP2 031833Z 14009KT 35/14 A3009 RMK A01 T03450141  RH  029%=      5-min Rain = 0
KSP2 031834Z 13007KT 35/14 A3009 RMK A01 T03450139  RH  029%=      5-min Rain = 0
KSP2 031835Z 15005KT 34/14 A3009 RMK A01 T03420139  RH  030%=      5-min Rain = 0
KSP2 031836Z 15007KT 34/14 A3009 RMK A01 T03430142  RH  030%=      5-min Rain = 0
KSP2 031837Z 16006KT 35/14 A3009 RMK A01 T03490143  RH  029%=      5-min Rain = 0
KSP2 031838Z 14010G16KT 35/14 A3009 RMK A01 T03510142  RH  028%=      5-min Rain = 0
KSP2 031839Z 14012G17KT 35/14 A3009 RMK A01 T03520141  RH  028%=      5-min Rain = 0
KSP2 031840Z 12009KT 35/14 A3009 RMK A01 T03490139  RH  028%=      5-min Rain = 0
KSP2 031841Z 12005KT 35/14 A3009 RMK A01 T03460139  RH  029%=      5-min Rain = 0
KSP2 031842Z 12003KT 34/14 A3009 RMK A01 T03440139  RH  029%=      5-min Rain = 0
KSP2 031843Z 18005KT 35/14 A3009 RMK A01 T03450142  RH  029%=      5-min Rain = 0
KSP2 031844Z 15007KT 35/14 A3009 RMK A01 T03470142  RH  029%=      5-min Rain = 0
KSP2 031845Z 15010G16KT 35/14 A3009 RMK A01 T03500142  RH  029%=      5-min Rain = 0
KSP2 031846Z 15012KT 35/14 A3009 RMK A01 T03540143  RH  028%=      5-min Rain = 0
KSP2 031847Z 13011KT 35/14 A3009 RMK A01 T03540141  RH  028%=      5-min Rain = 0
KSP2 031848Z 12011KT 35/14 A3009 RMK A01 T03530140  RH  028%=      5-min Rain = 0
KSP2 031849Z 13009KT 35/14 A3009 RMK A01 T03510139  RH  028%=      5-min Rain = 0
KSP2 031850Z 14005KT 35/14 A3009 RMK A01 T03500138  RH  028%=      5-min Rain = 0
KSP2 031851Z 15005KT 35/14 A3009 RMK A01 T03490138  RH  028%=      5-min Rain = 0
KSP2 031852Z 14007KT 35/14 A3009 RMK A01 T03460138  RH  029%=      5-min Rain = 0
KSP2 031853Z 13009KT 34/14 A3009 RMK A01 T03440139  RH  029%=      5-min Rain = 0
KSP2 031854Z 15008KT 34/14 A3009 RMK A01 T03440140  RH  029%=      5-min Rain = 0
KSP2 031855Z 17011KT 34/14 A3009 RMK A01 T03440141  RH  029%=      5-min Rain = 0
KSP2 031856Z 18011KT 34/14 A3009 RMK A01 T03430139  RH  029%=      5-min Rain = 0
KSP2 031857Z 19009KT 34/14 A3009 RMK A01 T03410140  RH  030%=      5-min Rain = 0
KSP2 031858Z 19011KT 35/15 A3009 RMK A01 T03480145  RH  030%=      5-min Rain = 0
KSP2 031859Z 19010KT 35/14 A3009 RMK A01 T03520142  RH  028%=      5-min Rain = 0
KSP2 031900Z 21008KT 35/14 A3009 RMK A01 T03480140  RH  029%=      5-min Rain = 0
KSP2 031901Z 19008KT 35/14 A3009 RMK A01 T03460139  RH  029%=      5-min Rain = 0
KSP2 031902Z 20012KT 35/14 A3009 RMK A01 T03480142  RH  029%=      5-min Rain = 0
KSP2 031903Z 19008KT 35/14 A3009 RMK A01 T03510141  RH  028%=      5-min Rain = 0
KSP2 031904Z 20004KT 35/14 A3009 RMK A01 T03500140  RH  028%=      5-min Rain = 0
KSP2 031905Z 19008KT 35/14 A3009 RMK A01 T03510142  RH  029%=      5-min Rain = 0
KSP2 031906Z 18008KT 36/14 A3008 RMK A01 T03550140  RH  028%=      5-min Rain = 0
KSP2 031907Z 16008KT 36/14 A3008 RMK A01 T03550142  RH  028%=      5-min Rain = 0
KSP2 031908Z 14010KT 36/14 A3008 RMK A01 T03590142  RH  027%=      5-min Rain = 0
KSP2 031909Z 15009KT 36/14 A3008 RMK A01 T03590140  RH  027%=      5-min Rain = 0
KSP2 031910Z 17006KT 35/14 A3008 RMK A01 T03540139  RH  028%=      5-min Rain = 0
KSP2 031911Z 19008KT 35/14 A3008 RMK A01 T03520140  RH  028%=      5-min Rain = 0
KSP2 031912Z 20010KT 35/14 A3008 RMK A01 T03520140  RH  028%=      5-min Rain = 0
KSP2 031913Z 19010KT 35/14 A3008 RMK A01 T03500139  RH  028%=      5-min Rain = 0
KSP2 031914Z 15010KT 35/14 A3008 RMK A01 T03450138  RH  029%=      5-min Rain = 0
KSP2 031915Z 14009KT 35/14 A3008 RMK A01 T03450138  RH  029%=      5-min Rain = 0
KSP2 031916Z 15007KT 35/14 A3008 RMK A01 T03470138  RH  028%=      5-min Rain = 0
KSP2 031917Z 15010KT 35/14 A3008 RMK A01 T03470138  RH  029%=      5-min Rain = 0
KSP2 031918Z 16009KT 35/14 A3008 RMK A01 T03480137  RH  028%=      5-min Rain = 0
KSP2 031919Z 15006KT 35/14 A3008 RMK A01 T03480138  RH  028%=      5-min Rain = 0
KSP2 031920Z 14007KT 35/14 A3008 RMK A01 T03490139  RH  028%=      5-min Rain = 0
KSP2 031921Z 14008KT 35/14 A3008 RMK A01 T03510139  RH  028%=      5-min Rain = 0
KSP2 031922Z 15007KT 35/14 A3008 RMK A01 T03530140  RH  028%=      5-min Rain = 0
KSP2 031923Z 15007G12KT 36/14 A3008 RMK A01 T03580142  RH  027%=      5-min Rain = 0
KSP2 031924Z 14006KT 36/14 A3008 RMK A01 T03620139  RH  026%=      5-min Rain = 0
KSP2 031925Z 10002KT 36/14 A3008 RMK A01 T03590136  RH  026%=      5-min Rain = 0
KSP2 031926Z 05001KT 35/14 A3008 RMK A01 T03530135  RH  027%=      5-min Rain = 0
KSP2 031927Z 13003KT 35/14 A3008 RMK A01 T03510137  RH  028%=      5-min Rain = 0
KSP2 031928Z 11011G17KT 36/14 A3008 RMK A01 T03550137  RH  027%=      5-min Rain = 0
KSP2 031929Z 14015KT 36/14 A3007 RMK A01 T03570137  RH  027%=      5-min Rain = 0
KSP2 031930Z 16011KT 36/14 A3008 RMK A01 T03580138  RH  027%=      5-min Rain = 0
KSP2 031931Z 18011KT 36/14 A3008 RMK A01 T03600138  RH  027%=      5-min Rain = 0
KSP2 031932Z 21005KT 36/13 A3008 RMK A01 T03560134  RH  026%=      5-min Rain = 0
KSP2 031933Z 24003KT 35/14 A3008 RMK A01 T03510135  RH  027%=      5-min Rain = 0
KSP2 031934Z 13005KT 36/14 A3008 RMK A01 T03560137  RH  027%=      5-min Rain = 0
KSP2 031935Z 15006KT 36/14 A3008 RMK A01 T03590137  RH  027%=      5-min Rain = 0
KSP2 031936Z 13005KT 36/13 A3008 RMK A01 T03600134  RH  026%=      5-min Rain = 0
KSP2 031937Z 12005KT 36/14 A3008 RMK A01 T03590135  RH  026%=      5-min Rain = 0
KSP2 031938Z 10003KT 36/13 A3007 RMK A01 T03590134  RH  026%=      5-min Rain = 0
KSP2 031939Z 14002KT 36/13 A3007 RMK A01 T03570132  RH  026%=      5-min Rain = 0
KSP2 031940Z 12006KT 36/13 A3007 RMK A01 T03550134  RH  027%=      5-min Rain = 0
KSP2 031941Z 11007KT 36/13 A3007 RMK A01 T03580133  RH  026%=      5-min Rain = 0
KSP2 031942Z 17005KT 35/13 A3007 RMK A01 T03540132  RH  026%=      5-min Rain = 0
KSP2 031943Z 16006KT 35/13 A3007 RMK A01 T03520133  RH  027%=      5-min Rain = 0
KSP2 031944Z 19007KT 35/13 A3007 RMK A01 T03510133  RH  027%=      5-min Rain = 0
KSP2 031945Z 21010KT 36/13 A3007 RMK A01 T03550134  RH  027%=      5-min Rain = 0
KSP2 031946Z 18007G12KT 36/14 A3007 RMK A01 T03620135  RH  026%=      5-min Rain = 0
KSP2 031947Z 15011G16KT 36/14 A3007 RMK A01 T03630136  RH  026%=      5-min Rain = 0
KSP2 031948Z 15014KT 36/14 A3007 RMK A01 T03630137  RH  026%=      5-min Rain = 0
KSP2 031949Z 15013KT 37/13 A3007 RMK A01 T03660134  RH  025%=      5-min Rain = 0
KSP2 031950Z 16012KT 37/13 A3008 RMK A01 T03670134  RH  025%=      5-min Rain = 0
KSP2 031951Z 17009KT 36/13 A3008 RMK A01 T03640131  RH  025%=      5-min Rain = 0
KSP2 031952Z 15008KT 36/13 A3008 RMK A01 T03570129  RH  025%=      5-min Rain = 0
KSP2 031953Z 16007KT 35/13 A3008 RMK A01 T03520130  RH  026%=      5-min Rain = 0
KSP2 031954Z 18006KT 35/13 A3007 RMK A01 T03480130  RH  027%=      5-min Rain = 0
KSP2 031955Z 20003KT 35/13 A3007 RMK A01 T03460129  RH  027%=      5-min Rain = 0
KSP2 031956Z 18002KT 35/13 A3007 RMK A01 T03470131  RH  027%=      5-min Rain = 0
KSP2 031957Z 14004KT 35/13 A3007 RMK A01 T03520132  RH  027%=      5-min Rain = 0
KSP2 031958Z 18004KT 35/13 A3007 RMK A01 T03540130  RH  026%=      5-min Rain = 0
KSP2 031959Z 17003KT 35/13 A3007 RMK A01 T03530131  RH  026%=      5-min Rain = 0
KSP2 032000Z 18004KT 35/13 A3007 RMK A01 T03540132  RH  026%=      5-min Rain = 0
KSP2 032001Z 20005KT 36/13 A3007 RMK A01 T03590132  RH  026%=      5-min Rain = 0
KSP2 032002Z 19005KT 36/13 A3007 RMK A01 T03580131  RH  026%=      5-min Rain = 0
KSP2 032003Z 16006KT 36/13 A3007 RMK A01 T03580132  RH  026%=      5-min Rain = 0
KSP2 032004Z 17007KT 36/13 A3007 RMK A01 T03600131  RH  025%=      5-min Rain = 0
KSP2 032005Z 17006KT 36/13 A3007 RMK A01 T03600130  RH  025%=      5-min Rain = 0
KSP2 032006Z 16013KT 36/13 A3007 RMK A01 T03590132  RH  026%=      5-min Rain = 0
KSP2 032007Z 16013KT 36/13 A3007 RMK A01 T03610131  RH  025%=      5-min Rain = 0
KSP2 032008Z 14011KT 36/13 A3007 RMK A01 T03620131  RH  025%=      5-min Rain = 0
KSP2 032009Z 14010KT 36/13 A3007 RMK A01 T03610128  RH  025%=      5-min Rain = 0
KSP2 032010Z 14007KT 36/13 A3007 RMK A01 T03580129  RH  025%=      5-min Rain = 0
KSP2 032011Z 15006KT 36/13 A3007 RMK A01 T03570129  RH  025%=      5-min Rain = 0
KSP2 032012Z 16011KT 35/13 A3007 RMK A01 T03540128  RH  026%=      5-min Rain = 0
KSP2 032013Z 17008KT 35/13 A3007 RMK A01 T03530128  RH  026%=      5-min Rain = 0
KSP2 032014Z 14009KT 36/13 A3007 RMK A01 T03550130  RH  026%=      5-min Rain = 0
KSP2 032015Z 14011KT 36/13 A3007 RMK A01 T03580128  RH  025%=      5-min Rain = 0
KSP2 032016Z 13012KT 36/13 A3007 RMK A01 T03590129  RH  025%=      5-min Rain = 0
KSP2 032017Z 12009KT 36/13 A3007 RMK A01 T03610129  RH  025%=      5-min Rain = 0
KSP2 032018Z 11008KT 36/13 A3007 RMK A01 T03590127  RH  025%=      5-min Rain = 0
KSP2 032019Z 13007KT 35/13 A3007 RMK A01 T03540127  RH  025%=      5-min Rain = 0
KSP2 032020Z 10004KT 35/13 A3007 RMK A01 T03510125  RH  026%=      5-min Rain = 0
KSP2 032021Z 05005KT 35/13 A3006 RMK A01 T03500126  RH  026%=      5-min Rain = 0
KSP2 032022Z 02003KT 35/13 A3006 RMK A01 T03530126  RH  025%=      5-min Rain = 0
KSP2 032023Z 09002KT 35/13 A3006 RMK A01 T03540125  RH  025%=      5-min Rain = 0
KSP2 032024Z 17007KT 36/13 A3006 RMK A01 T03550128  RH  026%=      5-min Rain = 0
KSP2 032025Z 16008KT 36/13 A3006 RMK A01 T03590128  RH  025%=      5-min Rain = 0
KSP2 032026Z 14005KT 36/13 A3007 RMK A01 T03550125  RH  025%=      5-min Rain = 0
KSP2 032027Z 16010KT 35/13 A3007 RMK A01 T03520127  RH  026%=      5-min Rain = 0
KSP2 032028Z 16011KT 35/13 A3007 RMK A01 T03530127  RH  026%=      5-min Rain = 0
KSP2 032029Z 16011KT 35/13 A3006 RMK A01 T03520127  RH  026%=      5-min Rain = 0
KSP2 032030Z 16008KT 35/13 A3006 RMK A01 T03510127  RH  026%=      5-min Rain = 0
KSP2 032031Z 16008KT 35/13 A3006 RMK A01 T03540127  RH  026%=      5-min Rain = 0
KSP2 032032Z 14012KT 35/13 A3006 RMK A01 T03540127  RH  026%=      5-min Rain = 0
KSP2 032033Z 15009KT 35/13 A3006 RMK A01 T03530125  RH  025%=      5-min Rain = 0
KSP2 032034Z 15009KT 35/13 A3006 RMK A01 T03520127  RH  026%=      5-min Rain = 0
KSP2 032035Z 14008KT 35/13 A3006 RMK A01 T03540125  RH  025%=      5-min Rain = 0
KSP2 032036Z 14011KT 35/13 A3006 RMK A01 T03540126  RH  025%=      5-min Rain = 0
KSP2 032037Z 14009KT 35/12 A3006 RMK A01 T03520124  RH  025%=      5-min Rain = 0
KSP2 032038Z 14006KT 35/12 A3006 RMK A01 T03500124  RH  026%=      5-min Rain = 0
KSP2 032039Z 13005KT 35/12 A3006 RMK A01 T03480124  RH  026%=      5-min Rain = 0
KSP2 032040Z 14006KT 35/13 A3006 RMK A01 T03470125  RH  026%=      5-min Rain = 0
KSP2 032041Z 15008KT 35/13 A3006 RMK A01 T03480126  RH  026%=      5-min Rain = 0
KSP2 032042Z 17007KT 35/13 A3006 RMK A01 T03500126  RH  026%=      5-min Rain = 0
KSP2 032043Z 17007KT 35/13 A3006 RMK A01 T03480125  RH  026%=      5-min Rain = 0
KSP2 032044Z 15007KT 35/13 A3006 RMK A01 T03450125  RH  026%=      5-min Rain = 0
KSP2 032045Z 14009KT 35/13 A3006 RMK A01 T03460126  RH  027%=      5-min Rain = 0
KSP2 032046Z 12011KT 35/13 A3006 RMK A01 T03460125  RH  026%=      5-min Rain = 0
KSP2 032047Z 09011KT 35/13 A3006 RMK A01 T03460126  RH  026%=      5-min Rain = 0
KSP2 032048Z 10009KT 35/13 A3006 RMK A01 T03460125  RH  026%=      5-min Rain = 0
KSP2 032049Z 10009KT 35/13 A3006 RMK A01 T03460125  RH  026%=      5-min Rain = 0
KSP2 032050Z 11008KT 35/13 A3006 RMK A01 T03460125  RH  026%=      5-min Rain = 0
KSP2 032051Z 12008KT 35/13 A3006 RMK A01 T03450126  RH  026%=      5-min Rain = 0
KSP2 032052Z 14008KT 35/13 A3006 RMK A01 T03460126  RH  026%=      5-min Rain = 0
KSP2 032053Z 13008KT 35/13 A3006 RMK A01 T03460125  RH  026%=      5-min Rain = 0
KSP2 032054Z 10007KT 35/13 A3006 RMK A01 T03470126  RH  026%=      5-min Rain = 0
KSP2 032055Z 12008KT 35/13 A3006 RMK A01 T03480126  RH  026%=      5-min Rain = 0
KSP2 032056Z 16011G17KT 35/13 A3006 RMK A01 T03490126  RH  026%=      5-min Rain = 0
KSP2 032057Z 17010KT 35/13 A3006 RMK A01 T03510129  RH  026%=      5-min Rain = 0
KSP2 032058Z 16011KT 36/13 A3006 RMK A01 T03550130  RH  026%=      5-min Rain = 0
KSP2 032059Z 14010KT 36/13 A3006 RMK A01 T03590128  RH  025%=      5-min Rain = 0
KSP2 032100Z 17010G15KT 36/13 A3006 RMK A01 T03590129  RH  025%=      5-min Rain = 0
KSP2 032101Z 16009KT 36/13 A3006 RMK A01 T03600129  RH  025%=      5-min Rain = 0
KSP2 032102Z 16010KT 36/13 A3006 RMK A01 T03600126  RH  025%=      5-min Rain = 0
KSP2 032103Z 14009KT 36/13 A3006 RMK A01 T03570127  RH  025%=      5-min Rain = 0
KSP2 032104Z 14011KT 36/13 A3006 RMK A01 T03550126  RH  025%=      5-min Rain = 0
KSP2 032105Z 15011G16KT 35/12 A3006 RMK A01 T03530124  RH  025%=      5-min Rain = 0
KSP2 032106Z 14012KT 35/12 A3006 RMK A01 T03510124  RH  025%=      5-min Rain = 0
KSP2 032107Z 14011KT 35/12 A3006 RMK A01 T03510124  RH  025%=      5-min Rain = 0
KSP2 032108Z 15011KT 35/12 A3006 RMK A01 T03520124  RH  025%=      5-min Rain = 0
KSP2 032109Z 15007KT 36/13 A3006 RMK A01 T03550125  RH  025%=      5-min Rain = 0
KSP2 032110Z 15010KT 36/13 A3006 RMK A01 T03590127  RH  025%=      5-min Rain = 0
KSP2 032111Z 15009KT 36/13 A3006 RMK A01 T03610126  RH  024%=      5-min Rain = 0
KSP2 032112Z 16009KT 36/13 A3005 RMK A01 T03610125  RH  024%=      5-min Rain = 0
KSP2 032113Z 16009KT 36/13 A3005 RMK A01 T03600125  RH  024%=      5-min Rain = 0
KSP2 032114Z 17008KT 36/12 A3005 RMK A01 T03600124  RH  024%=      5-min Rain = 0
KSP2 032115Z 17006KT 36/13 A3005 RMK A01 T03590125  RH  024%=      5-min Rain = 0
KSP2 032116Z 18006KT 36/12 A3005 RMK A01 T03590124  RH  024%=      5-min Rain = 0
KSP2 032117Z 19007KT 36/13 A3005 RMK A01 T03590125  RH  025%=      5-min Rain = 0
KSP2 032118Z 19007KT 36/12 A3005 RMK A01 T03580123  RH  024%=      5-min Rain = 0
KSP2 032119Z 17006KT 36/12 A3005 RMK A01 T03560124  RH  025%=      5-min Rain = 0
KSP2 032120Z 19006KT 36/12 A3005 RMK A01 T03570123  RH  024%=      5-min Rain = 0
KSP2 032121Z 15008KT 36/12 A3005 RMK A01 T03580124  RH  024%=      5-min Rain = 0
KSP2 032122Z 17007KT 36/12 A3005 RMK A01 T03590123  RH  024%=      5-min Rain = 0
KSP2 032123Z 18004KT 36/12 A3005 RMK A01 T03600124  RH  024%=      5-min Rain = 0
KSP2 032124Z 18007KT 36/12 A3005 RMK A01 T03610123  RH  024%=      5-min Rain = 0
KSP2 032125Z 18005KT 36/12 A3005 RMK A01 T03610121  RH  024%=      5-min Rain = 0
KSP2 032126Z 17003KT 36/12 A3005 RMK A01 T03590122  RH  024%=      5-min Rain = 0
KSP2 032127Z 17006KT 36/12 A3005 RMK A01 T03590123  RH  024%=      5-min Rain = 0
KSP2 032128Z 18007KT 36/12 A3005 RMK A01 T03600124  RH  024%=      5-min Rain = 0
KSP2 032129Z 13011KT 36/13 A3004 RMK A01 T03640128  RH  024%=      5-min Rain = 0
KSP2 032130Z 13012KT 37/13 A3004 RMK A01 T03680125  RH  023%=      5-min Rain = 0
KSP2 032131Z 13013KT 37/13 A3004 RMK A01 T03690125  RH  023%=      5-min Rain = 0
KSP2 032132Z 12013KT 37/12 A3004 RMK A01 T03670123  RH  023%=      5-min Rain = 0
KSP2 032133Z 13011KT 36/12 A3004 RMK A01 T03620123  RH  024%=      5-min Rain = 0
KSP2 032134Z 14010KT 36/12 A3004 RMK A01 T03610123  RH  024%=      5-min Rain = 0
KSP2 032135Z 14011G16KT 36/12 A3004 RMK A01 T03630122  RH  024%=      5-min Rain = 0
KSP2 032136Z 12010KT 36/12 A3004 RMK A01 T03610121  RH  024%=      5-min Rain = 0
KSP2 032137Z 12009KT 36/12 A3004 RMK A01 T03590122  RH  024%=      5-min Rain = 0
KSP2 032138Z 14009KT 36/12 A3004 RMK A01 T03610121  RH  024%=      5-min Rain = 0
KSP2 032139Z 15007KT 36/12 A3004 RMK A01 T03610121  RH  024%=      5-min Rain = 0
KSP2 032140Z 14008G14KT 36/12 A3004 RMK A01 T03600121  RH  024%=      5-min Rain = 0
KSP2 032141Z 16012KT 36/12 A3004 RMK A01 T03600123  RH  024%=      5-min Rain = 0
KSP2 032142Z 15009KT 36/12 A3004 RMK A01 T03600121  RH  024%=      5-min Rain = 0
KSP2 032143Z 17009KT 36/12 A3004 RMK A01 T03590123  RH  024%=      5-min Rain = 0
KSP2 032144Z 18009KT 36/12 A3004 RMK A01 T03600122  RH  024%=      5-min Rain = 0
KSP2 032145Z 19007KT 36/12 A3004 RMK A01 T03620122  RH  024%=      5-min Rain = 0
KSP2 032146Z 17007KT 36/12 A3004 RMK A01 T03620122  RH  024%=      5-min Rain = 0
KSP2 032147Z 17008KT 36/12 A3004 RMK A01 T03620121  RH  023%=      5-min Rain = 0
KSP2 032148Z 15006KT 36/12 A3004 RMK A01 T03610121  RH  024%=      5-min Rain = 0
KSP2 032149Z 15004KT 36/12 A3004 RMK A01 T03600120  RH  024%=      5-min Rain = 0
KSP2 032150Z 13012KT 36/12 A3004 RMK A01 T03610122  RH  024%=      5-min Rain = 0
KSP2 032151Z 13012KT 37/12 A3004 RMK A01 T03650121  RH  023%=      5-min Rain = 0
KSP2 032152Z 13011KT 37/12 A3004 RMK A01 T03670120  RH  023%=      5-min Rain = 0
KSP2 032153Z 13009KT 36/12 A3004 RMK A01 T03610118  RH  023%=      5-min Rain = 0
KSP2 032154Z 13006KT 36/12 A3004 RMK A01 T03590119  RH  023%=      5-min Rain = 0
KSP2 032155Z 16008KT 36/12 A3004 RMK A01 T03600122  RH  024%=      5-min Rain = 0
KSP2 032156Z 16009KT 37/12 A3004 RMK A01 T03660123  RH  023%=      5-min Rain = 0
KSP2 032157Z 14013KT 37/12 A3004 RMK A01 T03670122  RH  023%=      5-min Rain = 0
KSP2 032158Z 14013KT 36/12 A3004 RMK A01 T03630120  RH  023%=      5-min Rain = 0
KSP2 032159Z 15009KT 36/12 A3004 RMK A01 T03590121  RH  024%=      5-min Rain = 0
KSP2 032200Z 14012KT 36/12 A3004 RMK A01 T03570121  RH  024%=      5-min Rain = 0
KSP2 032201Z 15016KT 36/12 A3004 RMK A01 T03560120  RH  024%=      5-min Rain = 0
KSP2 032202Z 15009G14KT 35/12 A3004 RMK A01 T03530119  RH  024%=      5-min Rain = 0
KSP2 032203Z 16011KT 35/12 A3004 RMK A01 T03500120  RH  025%=      5-min Rain = 0
KSP2 032204Z 17012KT 35/12 A3004 RMK A01 T03500120  RH  025%=      5-min Rain = 0
KSP2 032205Z 16007KT 35/12 A3004 RMK A01 T03490119  RH  025%=      5-min Rain = 0
KSP2 032206Z 17005KT 35/12 A3004 RMK A01 T03480118  RH  025%=      5-min Rain = 0
KSP2 032207Z 14009KT 35/12 A3004 RMK A01 T03470119  RH  025%=      5-min Rain = 0
KSP2 032208Z 14006KT 35/12 A3004 RMK A01 T03480119  RH  025%=      5-min Rain = 0
KSP2 032209Z 15006KT 35/12 A3004 RMK A01 T03470119  RH  025%=      5-min Rain = 0
KSP2 032210Z 15004KT 35/12 A3004 RMK A01 T03460118  RH  025%=      5-min Rain = 0
KSP2 032211Z 15004KT 35/12 A3004 RMK A01 T03460119  RH  025%=      5-min Rain = 0
KSP2 032212Z 16003KT 35/12 A3004 RMK A01 T03460119  RH  025%=      5-min Rain = 0
KSP2 032213Z 13007KT 35/12 A3004 RMK A01 T03470120  RH  025%=      5-min Rain = 0
KSP2 032214Z 12011KT 35/12 A3004 RMK A01 T03500119  RH  025%=      5-min Rain = 0
KSP2 032215Z 12008KT 35/12 A3004 RMK A01 T03500117  RH  024%=      5-min Rain = 0
KSP2 032216Z 12004KT 35/12 A3004 RMK A01 T03480116  RH  025%=      5-min Rain = 0
KSP2 032217Z 14002KT 35/12 A3004 RMK A01 T03470116  RH  025%=      5-min Rain = 0
KSP2 032218Z 13003KT 35/12 A3004 RMK A01 T03470117  RH  025%=      5-min Rain = 0
KSP2 032219Z 15004G9KT 35/12 A3004 RMK A01 T03470118  RH  025%=      5-min Rain = 0
KSP2 032220Z 14012KT 35/12 A3004 RMK A01 T03490118  RH  025%=      5-min Rain = 0
KSP2 032221Z 15013KT 35/12 A3004 RMK A01 T03510119  RH  025%=      5-min Rain = 0
KSP2 032222Z 15013KT 35/12 A3004 RMK A01 T03530118  RH  024%=      5-min Rain = 0
KSP2 032223Z 15014KT 35/12 A3004 RMK A01 T03510118  RH  024%=      5-min Rain = 0
KSP2 032224Z 14011KT 35/12 A3004 RMK A01 T03510118  RH  024%=      5-min Rain = 0
KSP2 032225Z 15010KT 35/12 A3004 RMK A01 T03510118  RH  025%=      5-min Rain = 0
KSP2 032226Z 16011KT 35/12 A3004 RMK A01 T03510118  RH  024%=      5-min Rain = 0
KSP2 032227Z 16010KT 35/12 A3004 RMK A01 T03490117  RH  024%=      5-min Rain = 0
KSP2 032228Z 16009KT 35/12 A3004 RMK A01 T03480117  RH  025%=      5-min Rain = 0
KSP2 032229Z 15009KT 35/12 A3004 RMK A01 T03470117  RH  025%=      5-min Rain = 0
KSP2 032230Z 15008KT 35/12 A3004 RMK A01 T03470117  RH  025%=      5-min Rain = 0
KSP2 032231Z 16006KT 35/12 A3003 RMK A01 T03470118  RH  025%=      5-min Rain = 0
KSP2 032232Z 17008KT 35/12 A3003 RMK A01 T03470116  RH  025%=      5-min Rain = 0
KSP2 032233Z 16006KT 35/12 A3003 RMK A01 T03490118  RH  025%=      5-min Rain = 0
KSP2 032234Z 16006KT 35/12 A3003 RMK A01 T03510116  RH  024%=      5-min Rain = 0
KSP2 032235Z 15007KT 35/12 A3003 RMK A01 T03510117  RH  024%=      5-min Rain = 0
KSP2 032236Z 16005KT 35/12 A3003 RMK A01 T03510119  RH  025%=      5-min Rain = 0
KSP2 032237Z 15005KT 35/12 A3003 RMK A01 T03510119  RH  025%=      5-min Rain = 0
KSP2 032238Z 16004KT 35/12 A3003 RMK A01 T03510117  RH  024%=      5-min Rain = 0
KSP2 032239Z 16004KT 35/12 A3003 RMK A01 T03520116  RH  024%=      5-min Rain = 0
KSP2 032240Z 12003KT 35/12 A3003 RMK A01 T03510116  RH  024%=      5-min Rain = 0
KSP2 032241Z 11004KT 35/12 A3003 RMK A01 T03520116  RH  024%=      5-min Rain = 0
KSP2 032242Z 13004KT 35/12 A3003 RMK A01 T03540117  RH  024%=      5-min Rain = 0
KSP2 032243Z 15005KT 36/12 A3003 RMK A01 T03580118  RH  023%=      5-min Rain = 0
KSP2 032244Z 15006KT 36/12 A3003 RMK A01 T03600117  RH  023%=      5-min Rain = 0
KSP2 032245Z 14004KT 36/12 A3003 RMK A01 T03620116  RH  023%=      5-min Rain = 0
KSP2 032246Z 13007KT 36/12 A3003 RMK A01 T03610116  RH  023%=      5-min Rain = 0
KSP2 032247Z 13007KT 36/12 A3003 RMK A01 T03600116  RH  023%=      5-min Rain = 0
KSP2 032248Z 13011KT 36/12 A3003 RMK A01 T03600116  RH  023%=      5-min Rain = 0
KSP2 032249Z 14012KT 36/12 A3003 RMK A01 T03630117  RH  023%=      5-min Rain = 0
KSP2 032250Z 15009KT 36/12 A3003 RMK A01 T03640117  RH  023%=      5-min Rain = 0
KSP2 032251Z 15009G15KT 36/12 A3003 RMK A01 T03620117  RH  023%=      5-min Rain = 0
KSP2 032252Z 13014KT 36/12 A3003 RMK A01 T03630117  RH  023%=      5-min Rain = 0
KSP2 032253Z 15011KT 36/12 A3003 RMK A01 T03640117  RH  023%=      5-min Rain = 0
KSP2 032254Z 16010KT 37/12 A3003 RMK A01 T03680119  RH  022%=      5-min Rain = 0
KSP2 032255Z 14008KT 37/12 A3003 RMK A01 T03700119  RH  022%=      5-min Rain = 0
KSP2 032256Z 14005KT 37/12 A3003 RMK A01 T03690115  RH  022%=      5-min Rain = 0
KSP2 032257Z 14004KT 36/12 A3002 RMK A01 T03640116  RH  022%=      5-min Rain = 0
KSP2 032258Z 12006KT 36/12 A3002 RMK A01 T03620116  RH  023%=      5-min Rain = 0
KSP2 032259Z 13012KT 36/12 A3002 RMK A01 T03620116  RH  023%=      5-min Rain = 0
KSP2 032300Z 13009KT 36/12 A3002 RMK A01 T03630115  RH  023%=      5-min Rain = 0
KSP2 032301Z 13006KT 36/12 A3002 RMK A01 T03590115  RH  023%=      5-min Rain = 0
KSP2 032302Z 13011KT 36/12 A3002 RMK A01 T03560115  RH  023%=      5-min Rain = 0
KSP2 032303Z 12010KT 36/12 A3002 RMK A01 T03550115  RH  023%=      5-min Rain = 0
KSP2 032304Z 14009KT 35/12 A3002 RMK A01 T03540116  RH  024%=      5-min Rain = 0
KSP2 032305Z 14011KT 35/12 A3002 RMK A01 T03530115  RH  024%=      5-min Rain = 0
KSP2 032306Z 14009KT 35/12 A3002 RMK A01 T03510115  RH  024%=      5-min Rain = 0
KSP2 032307Z 14006KT 35/12 A3002 RMK A01 T03500115  RH  024%=      5-min Rain = 0
KSP2 032308Z 15009KT 35/12 A3002 RMK A01 T03490116  RH  024%=      5-min Rain = 0
KSP2 032309Z 14012KT 35/12 A3002 RMK A01 T03490116  RH  024%=      5-min Rain = 0
KSP2 032310Z 12013KT 35/12 A3002 RMK A01 T03520118  RH  024%=      5-min Rain = 0
KSP2 032311Z 14013KT 36/12 A3002 RMK A01 T03550116  RH  024%=      5-min Rain = 0
KSP2 032312Z 14012KT 36/12 A3002 RMK A01 T03560115  RH  023%=      5-min Rain = 0
KSP2 032313Z 13010KT 36/12 A3002 RMK A01 T03560115  RH  023%=      5-min Rain = 0
KSP2 032314Z 13010KT 36/12 A3002 RMK A01 T03550116  RH  024%=      5-min Rain = 0
KSP2 032315Z 13010KT 35/12 A3002 RMK A01 T03540117  RH  024%=      5-min Rain = 0
KSP2 032316Z 12010KT 35/12 A3001 RMK A01 T03520116  RH  024%=      5-min Rain = 0
KSP2 032317Z 13009KT 35/12 A3001 RMK A01 T03500116  RH  024%=      5-min Rain = 0
KSP2 032318Z 12009KT 35/12 A3001 RMK A01 T03490116  RH  024%=      5-min Rain = 0
KSP2 032319Z 12008KT 35/12 A3001 RMK A01 T03490117  RH  025%=      5-min Rain = 0
KSP2 032320Z 11006KT 35/12 A3001 RMK A01 T03470116  RH  025%=      5-min Rain = 0
KSP2 032321Z 11006KT 35/12 A3001 RMK A01 T03460117  RH  025%=      5-min Rain = 0
KSP2 032322Z 12006KT 35/12 A3001 RMK A01 T03460116  RH  025%=      5-min Rain = 0
KSP2 032323Z 12006KT 35/12 A3001 RMK A01 T03470117  RH  025%=      5-min Rain = 0
KSP2 032324Z 11005KT 35/12 A3001 RMK A01 T03500117  RH  025%=      5-min Rain = 0
KSP2 032325Z 13006KT 35/12 A3001 RMK A01 T03510118  RH  024%=      5-min Rain = 0
KSP2 032326Z 13013G18KT 35/12 A3001 RMK A01 T03510119  RH  025%=      5-min Rain = 0
KSP2 032327Z 15011KT 35/12 A3001 RMK A01 T03500119  RH  025%=      5-min Rain = 0
KSP2 032328Z 15009KT 35/12 A3001 RMK A01 T03480118  RH  025%=      5-min Rain = 0
KSP2 032329Z 18009KT 35/12 A3001 RMK A01 T03460117  RH  025%=      5-min Rain = 0
KSP2 032330Z 16007KT 34/12 A3001 RMK A01 T03440116  RH  025%=      5-min Rain = 0
KSP2 032331Z 15010KT 34/12 A3001 RMK A01 T03440117  RH  025%=      5-min Rain = 0
KSP2 032332Z 12009KT 35/12 A3001 RMK A01 T03460117  RH  025%=      5-min Rain = 0
KSP2 032333Z 13009KT 35/12 A3001 RMK A01 T03490116  RH  024%=      5-min Rain = 0
KSP2 032334Z 14009KT 35/12 A3001 RMK A01 T03520116  RH  024%=      5-min Rain = 0
KSP2 032335Z 14009KT 35/12 A3001 RMK A01 T03520115  RH  024%=      5-min Rain = 0
KSP2 032336Z 16006KT 35/12 A3001 RMK A01 T03540117  RH  024%=      5-min Rain = 0
KSP2 032337Z 16006KT 35/12 A3001 RMK A01 T03530117  RH  024%=      5-min Rain = 0
KSP2 032338Z 16008KT 35/12 A3001 RMK A01 T03530118  RH  024%=      5-min Rain = 0
KSP2 032339Z 15009KT 35/12 A3001 RMK A01 T03540120  RH  024%=      5-min Rain = 0
KSP2 032340Z 15010KT 36/12 A3001 RMK A01 T03560120  RH  024%=      5-min Rain = 0
KSP2 032341Z 14009KT 36/12 A3001 RMK A01 T03580119  RH  024%=      5-min Rain = 0
KSP2 032342Z 13007KT 36/12 A3001 RMK A01 T03580119  RH  024%=      5-min Rain = 0
KSP2 032343Z 11009KT 36/12 A3001 RMK A01 T03570120  RH  024%=      5-min Rain = 0
KSP2 032344Z 12010KT 36/12 A3001 RMK A01 T03550119  RH  024%=      5-min Rain = 0
KSP2 032345Z 10012KT 35/12 A3001 RMK A01 T03520118  RH  024%=      5-min Rain = 0
KSP2 032346Z 10009KT 35/12 A3001 RMK A01 T03480117  RH  025%=      5-min Rain = 0
KSP2 032347Z 10010KT 35/12 A3001 RMK A01 T03470118  RH  025%=      5-min Rain = 0
KSP2 032348Z 10011KT 35/12 A3001 RMK A01 T03470118  RH  025%=      5-min Rain = 0
KSP2 032349Z 09011KT 35/12 A3001 RMK A01 T03460117  RH  025%=      5-min Rain = 0
KSP2 032350Z 10010KT 35/12 A3001 RMK A01 T03460117  RH  025%=      5-min Rain = 0
KSP2 032351Z 09010KT 34/12 A3001 RMK A01 T03440117  RH  025%=      5-min Rain = 0
KSP2 032352Z 10010KT 34/12 A3001 RMK A01 T03440117  RH  025%=      5-min Rain = 0
KSP2 032353Z 09008KT 34/12 A3001 RMK A01 T03430117  RH  025%=      5-min Rain = 0
KSP2 032354Z 09009KT 34/12 A3001 RMK A01 T03430118  RH  025%=      5-min Rain = 0
KSP2 032355Z 11009KT 34/12 A3001 RMK A01 T03430117  RH  025%=      5-min Rain = 0
KSP2 032356Z 11008KT 34/12 A3001 RMK A01 T03420117  RH  025%=      5-min Rain = 0
KSP2 032357Z 12009KT 34/12 A3001 RMK A01 T03420118  RH  026%=      5-min Rain = 0
KSP2 032358Z 13008KT 34/12 A3001 RMK A01 T03420117  RH  026%=      5-min Rain = 0
KSP2 032359Z 13009KT 34/12 A3001 RMK A01 T03410118  RH  026%=      5-min Rain = 0
KSP2 040000Z 12008KT 34/12 A3001 RMK A01 T03410118  RH  026%=      5-min Rain = 0
KSP2 040001Z 13008KT 34/12 A3001 RMK A01 T03410118  RH  026%=      5-min Rain = 0
KSP2 040002Z 14008KT 34/12 A3001 RMK A01 T03410118  RH  026%=      5-min Rain = 0
KSP2 040003Z 14009KT 34/12 A3001 RMK A01 T03410117  RH  026%=      5-min Rain = 0
KSP2 040004Z 12007KT 34/12 A3002 RMK A01 T03410118  RH  026%=      5-min Rain = 0
KSP2 040005Z 11008KT 34/12 A3002 RMK A01 T03400118  RH  026%=      5-min Rain = 0
KSP2 040006Z 11007KT 34/12 A3002 RMK A01 T03400117  RH  026%=      5-min Rain = 0
KSP2 040007Z 12006KT 34/12 A3002 RMK A01 T03400118  RH  026%=      5-min Rain = 0
KSP2 040008Z 11005KT 34/12 A3002 RMK A01 T03400118  RH  026%=      5-min Rain = 0
KSP2 040009Z 12004KT 34/12 A3002 RMK A01 T03400119  RH  026%=      5-min Rain = 0
KSP2 040010Z 12007KT 34/12 A3002 RMK A01 T03400119  RH  026%=      5-min Rain = 0
KSP2 040011Z 13008KT 34/12 A3002 RMK A01 T03400120  RH  026%=      5-min Rain = 0
KSP2 040012Z 13008KT 34/12 A3002 RMK A01 T03400119  RH  026%=      5-min Rain = 0
KSP2 040013Z 11010KT 34/12 A3002 RMK A01 T03400119  RH  026%=      5-min Rain = 0
KSP2 040014Z 12011KT 34/12 A3002 RMK A01 T03390121  RH  027%=      5-min Rain = 0
KSP2 040015Z 12010KT 34/12 A3002 RMK A01 T03390122  RH  027%=      5-min Rain = 0
KSP2 040016Z 11010KT 34/12 A3002 RMK A01 T03390122  RH  027%=      5-min Rain = 0
KSP2 040017Z 12011KT 34/12 A3002 RMK A01 T03390123  RH  027%=      5-min Rain = 0
KSP2 040018Z 12012KT 34/12 A3002 RMK A01 T03390123  RH  027%=      5-min Rain = 0
KSP2 040019Z 12013KT 34/12 A3002 RMK A01 T03380123  RH  027%=      5-min Rain = 0
KSP2 040020Z 11010KT 34/12 A3002 RMK A01 T03380123  RH  027%=      5-min Rain = 0
KSP2 040021Z 11009KT 34/12 A3002 RMK A01 T03370123  RH  027%=      5-min Rain = 0
KSP2 040022Z 10007KT 34/12 A3002 RMK A01 T03370123  RH  027%=      5-min Rain = 0
KSP2 040023Z 10007KT 34/12 A3002 RMK A01 T03370124  RH  028%=      5-min Rain = 0
KSP2 040024Z 11007KT 34/12 A3002 RMK A01 T03360124  RH  028%=      5-min Rain = 0
KSP2 040025Z 11007KT 34/12 A3002 RMK A01 T03360124  RH  028%=      5-min Rain = 0
KSP2 040026Z 11007KT 34/13 A3002 RMK A01 T03370125  RH  028%=      5-min Rain = 0
KSP2 040027Z 10008KT 34/13 A3002 RMK A01 T03360125  RH  028%=      5-min Rain = 0
KSP2 040028Z 10010KT 34/12 A3002 RMK A01 T03360123  RH  027%=      5-min Rain = 0
KSP2 040029Z 12010KT 34/12 A3002 RMK A01 T03360124  RH  028%=      5-min Rain = 0
KSP2 040030Z 13012KT 34/12 A3002 RMK A01 T03360123  RH  027%=      5-min Rain = 0
KSP2 040031Z 13010KT 34/12 A3003 RMK A01 T03370123  RH  027%=      5-min Rain = 0
KSP2 040032Z 13008KT 34/12 A3003 RMK A01 T03370123  RH  027%=      5-min Rain = 0
KSP2 040033Z 13008KT 34/12 A3003 RMK A01 T03370124  RH  027%=      5-min Rain = 0
KSP2 040034Z 13009KT 34/12 A3003 RMK A01 T03370124  RH  027%=      5-min Rain = 0
KSP2 040035Z 14011KT 34/12 A3002 RMK A01 T03370124  RH  027%=      5-min Rain = 0
KSP2 040036Z 12010KT 34/12 A3002 RMK A01 T03370124  RH  028%=      5-min Rain = 0
KSP2 040037Z 11010KT 34/13 A3002 RMK A01 T03360125  RH  028%=      5-min Rain = 0
KSP2 040038Z 13010KT 34/13 A3002 RMK A01 T03360125  RH  028%=      5-min Rain = 0
KSP2 040039Z 13009KT 34/13 A3002 RMK A01 T03360125  RH  028%=      5-min Rain = 0
KSP2 040040Z 12009KT 34/13 A3002 RMK A01 T03360125  RH  028%=      5-min Rain = 0
KSP2 040041Z 13009KT 34/13 A3002 RMK A01 T03360125  RH  028%=      5-min Rain = 0
KSP2 040042Z 12010KT 34/13 A3003 RMK A01 T03360125  RH  028%=      5-min Rain = 0
KSP2 040043Z 12009KT 34/13 A3003 RMK A01 T03360125  RH  028%=      5-min Rain = 0
KSP2 040044Z 12007KT 34/12 A3003 RMK A01 T03360124  RH  028%=      5-min Rain = 0
KSP2 040045Z 12008KT 34/13 A3003 RMK A01 T03360125  RH  028%=      5-min Rain = 0
KSP2 040046Z 13008KT 34/13 A3003 RMK A01 T03360125  RH  028%=      5-min Rain = 0
KSP2 040047Z 12008KT 34/13 A3003 RMK A01 T03360126  RH  028%=      5-min Rain = 0
KSP2 040048Z 13009KT 34/13 A3003 RMK A01 T03360126  RH  028%=      5-min Rain = 0
KSP2 040049Z 13009KT 34/13 A3003 RMK A01 T03360125  RH  028%=      5-min Rain = 0
KSP2 040050Z 13010KT 34/13 A3003 RMK A01 T03360126  RH  028%=      5-min Rain = 0
KSP2 040051Z 12010KT 34/13 A3003 RMK A01 T03360126  RH  028%=      5-min Rain = 0
KSP2 040052Z 12009KT 34/13 A3003 RMK A01 T03350125  RH  028%=      5-min Rain = 0
KSP2 040053Z 12010KT 34/13 A3003 RMK A01 T03350126  RH  028%=      5-min Rain = 0
KSP2 040054Z 13009KT 34/13 A3003 RMK A01 T03350126  RH  028%=      5-min Rain = 0
KSP2 040055Z 13009KT 34/13 A3003 RMK A01 T03350127  RH  028%=      5-min Rain = 0
KSP2 040056Z 12008KT 33/13 A3003 RMK A01 T03340127  RH  028%=      5-min Rain = 0
KSP2 040057Z 12008KT 33/13 A3003 RMK A01 T03340126  RH  028%=      5-min Rain = 0
KSP2 040058Z 12008KT 33/13 A3003 RMK A01 T03340126  RH  028%=      5-min Rain = 0
KSP2 040059Z 13008KT 33/13 A3003 RMK A01 T03340126  RH  028%=      5-min Rain = 0
KSP2 040100Z 12008KT 33/13 A3003 RMK A01 T03340127  RH  029%=      5-min Rain = 0
KSP2 040101Z 13008KT 33/13 A3003 RMK A01 T03330128  RH  029%=      5-min Rain = 0
KSP2 040102Z 13007KT 33/13 A3003 RMK A01 T03330128  RH  029%=      5-min Rain = 0
KSP2 040103Z 13007KT 33/13 A3003 RMK A01 T03320129  RH  029%=      5-min Rain = 0
KSP2 040104Z 13007KT 33/13 A3003 RMK A01 T03320129  RH  029%=      5-min Rain = 0
KSP2 040105Z 13007KT 33/13 A3003 RMK A01 T03320129  RH  029%=      5-min Rain = 0
KSP2 040106Z 13007KT 33/13 A3003 RMK A01 T03320130  RH  029%=      5-min Rain = 0
KSP2 040107Z 13007KT 33/13 A3003 RMK A01 T03310129  RH  029%=      5-min Rain = 0
KSP2 040108Z 13008KT 33/13 A3003 RMK A01 T03310129  RH  029%=      5-min Rain = 0
KSP2 040109Z 13008KT 33/13 A3003 RMK A01 T03310128  RH  029%=      5-min Rain = 0
KSP2 040110Z 13008KT 33/13 A3003 RMK A01 T03310128  RH  029%=      5-min Rain = 0
KSP2 040111Z 13009KT 33/13 A3003 RMK A01 T03310128  RH  029%=      5-min Rain = 0
KSP2 040112Z 13008KT 33/13 A3003 RMK A01 T03310129  RH  029%=      5-min Rain = 0
KSP2 040113Z 12007KT 33/13 A3003 RMK A01 T03300129  RH  030%=      5-min Rain = 0
KSP2 040114Z 12007KT 33/13 A3003 RMK A01 T03290129  RH  030%=      5-min Rain = 0
KSP2 040115Z 12007KT 33/13 A3003 RMK A01 T03290129  RH  030%=      5-min Rain = 0
KSP2 040116Z 12007KT 33/13 A3004 RMK A01 T03280130  RH  030%=      5-min Rain = 0
KSP2 040117Z 12006KT 33/13 A3003 RMK A01 T03280131  RH  030%=      5-min Rain = 0
KSP2 040118Z 12007KT 33/13 A3003 RMK A01 T03270131  RH  030%=      5-min Rain = 0
KSP2 040119Z 12007KT 33/13 A3003 RMK A01 T03260131  RH  031%=      5-min Rain = 0
KSP2 040120Z 12007KT 33/13 A3003 RMK A01 T03250131  RH  031%=      5-min Rain = 0
KSP2 040121Z 11006KT 33/13 A3004 RMK A01 T03250131  RH  031%=      5-min Rain = 0
KSP2 040122Z 11006KT 33/13 A3004 RMK A01 T03250130  RH  031%=      5-min Rain = 0
KSP2 040123Z 10005KT 32/13 A3004 RMK A01 T03240130  RH  031%=      5-min Rain = 0
KSP2 040124Z 10004KT 32/13 A3004 RMK A01 T03240131  RH  031%=      5-min Rain = 0
KSP2 040125Z 10004KT 32/13 A3004 RMK A01 T03230130  RH  031%=      5-min Rain = 0
KSP2 040126Z 09005KT 32/13 A3004 RMK A01 T03220130  RH  031%=      5-min Rain = 0
KSP2 040127Z 09005KT 32/13 A3004 RMK A01 T03210131  RH  031%=      5-min Rain = 0
KSP2 040128Z 09005KT 32/13 A3004 RMK A01 T03210133  RH  032%=      5-min Rain = 0
KSP2 040129Z 09008KT 32/14 A3004 RMK A01 T03200138  RH  033%=      5-min Rain = 0
KSP2 040130Z 09008KT 32/14 A3004 RMK A01 T03200141  RH  034%=      5-min Rain = 0
KSP2 040131Z 09011KT 32/14 A3004 RMK A01 T03200141  RH  034%=      5-min Rain = 0
KSP2 040132Z 10010KT 32/14 A3004 RMK A01 T03200142  RH  034%=      5-min Rain = 0
KSP2 040133Z 09009KT 32/14 A3004 RMK A01 T03190142  RH  034%=      5-min Rain = 0
KSP2 040134Z 10008KT 32/14 A3004 RMK A01 T03190143  RH  034%=      5-min Rain = 0
KSP2 040135Z 10007KT 32/14 A3004 RMK A01 T03190143  RH  034%=      5-min Rain = 0
KSP2 040136Z 11007KT 32/14 A3004 RMK A01 T03180143  RH  034%=      5-min Rain = 0
KSP2 040137Z 10008KT 32/14 A3003 RMK A01 T03170142  RH  035%=      5-min Rain = 0
KSP2 040138Z 11007KT 32/14 A3003 RMK A01 T03170143  RH  035%=      5-min Rain = 0
KSP2 040139Z 10007KT 32/14 A3003 RMK A01 T03160143  RH  035%=      5-min Rain = 0
KSP2 040140Z 09007KT 32/14 A3003 RMK A01 T03160143  RH  035%=      5-min Rain = 0
KSP2 040141Z 09009KT 32/14 A3003 RMK A01 T03150143  RH  035%=      5-min Rain = 0
KSP2 040142Z 09009KT 31/14 A3003 RMK A01 T03140143  RH  035%=      5-min Rain = 0
KSP2 040143Z 10007KT 31/14 A3003 RMK A01 T03140143  RH  035%=      5-min Rain = 0
KSP2 040144Z 10006KT 31/14 A3003 RMK A01 T03140143  RH  035%=      5-min Rain = 0
KSP2 040145Z 10006KT 31/14 A3003 RMK A01 T03130143  RH  036%=      5-min Rain = 0
KSP2 040146Z 10005KT 31/14 A3003 RMK A01 T03110142  RH  036%=      5-min Rain = 0
KSP2 040147Z 10005KT 31/14 A3003 RMK A01 T03090142  RH  036%=      5-min Rain = 0
KSP2 040148Z 10005KT 31/14 A3003 RMK A01 T03070142  RH  037%=      5-min Rain = 0
KSP2 040149Z 10006KT 31/14 A3003 RMK A01 T03050141  RH  037%=      5-min Rain = 0
KSP2 040150Z 10006KT 30/14 A3003 RMK A01 T03040141  RH  037%=      5-min Rain = 0
KSP2 040151Z 10006KT 30/14 A3003 RMK A01 T03020141  RH  037%=      5-min Rain = 0
KSP2 040152Z 10006KT 30/14 A3003 RMK A01 T03010141  RH  038%=      5-min Rain = 0
KSP2 040153Z 10005KT 30/14 A3003 RMK A01 T03000141  RH  038%=      5-min Rain = 0
KSP2 040154Z 10005KT 30/14 A3004 RMK A01 T02990141  RH  038%=      5-min Rain = 0
KSP2 040155Z 10006KT 30/14 A3004 RMK A01 T02980141  RH  038%=      5-min Rain = 0
KSP2 040156Z 11006KT 30/14 A3004 RMK A01 T02980141  RH  038%=      5-min Rain = 0
KSP2 040157Z 11006KT 30/14 A3004 RMK A01 T02970140  RH  038%=      5-min Rain = 0
KSP2 040158Z 10006KT 30/14 A3004 RMK A01 T02960140  RH  038%=      5-min Rain = 0
KSP2 040159Z 10006KT 30/14 A3004 RMK A01 T02960139  RH  038%=      5-min Rain = 0
KSP2 040200Z 10006KT 30/14 A3004 RMK A01 T02950138  RH  038%=      5-min Rain = 0
KSP2 040201Z 10006KT 30/14 A3004 RMK A01 T02950137  RH  038%=      5-min Rain = 0
KSP2 040202Z 10006KT 29/14 A3004 RMK A01 T02940135  RH  038%=      5-min Rain = 0
KSP2 040203Z 10006KT 29/14 A3004 RMK A01 T02930135  RH  038%=      5-min Rain = 0
KSP2 040204Z 09006KT 29/14 A3004 RMK A01 T02930136  RH  038%=      5-min Rain = 0
KSP2 040205Z 10006KT 29/14 A3004 RMK A01 T02920136  RH  038%=      5-min Rain = 0
KSP2 040206Z 10005KT 29/14 A3004 RMK A01 T02910136  RH  039%=      5-min Rain = 0
KSP2 040207Z 10006KT 29/14 A3004 RMK A01 T02900136  RH  039%=      5-min Rain = 0
KSP2 040208Z 10006KT 29/14 A3004 RMK A01 T02890136  RH  039%=      5-min Rain = 0
KSP2 040209Z 10006KT 29/14 A3004 RMK A01 T02880135  RH  039%=      5-min Rain = 0
KSP2 040210Z 10006KT 29/13 A3004 RMK A01 T02880133  RH  038%=      5-min Rain = 0
KSP2 040211Z 10006KT 29/13 A3004 RMK A01 T02880131  RH  038%=      5-min Rain = 0
KSP2 040212Z 11006KT 29/13 A3004 RMK A01 T02890130  RH  038%=      5-min Rain = 0
KSP2 040213Z 11006KT 29/13 A3004 RMK A01 T02900130  RH  037%=      5-min Rain = 0
KSP2 040214Z 11006KT 29/13 A3004 RMK A01 T02900130  RH  037%=      5-min Rain = 0
KSP2 040215Z 11008KT 29/13 A3004 RMK A01 T02910130  RH  037%=      5-min Rain = 0
KSP2 040216Z 11008KT 29/13 A3004 RMK A01 T02930130  RH  037%=      5-min Rain = 0
KSP2 040217Z 11007KT 29/13 A3004 RMK A01 T02940131  RH  037%=      5-min Rain = 0
KSP2 040218Z 11007KT 30/13 A3004 RMK A01 T02950130  RH  036%=      5-min Rain = 0
KSP2 040219Z 11007KT 30/13 A3004 RMK A01 T02950130  RH  036%=      5-min Rain = 0
KSP2 040220Z 10007KT 30/13 A3005 RMK A01 T02960131  RH  036%=      5-min Rain = 0
KSP2 040221Z 10007KT 30/13 A3005 RMK A01 T02960131  RH  036%=      5-min Rain = 0
KSP2 040222Z 10007KT 30/13 A3005 RMK A01 T02960131  RH  036%=      5-min Rain = 0
KSP2 040223Z 11007KT 30/13 A3005 RMK A01 T02950130  RH  036%=      5-min Rain = 0
KSP2 040224Z 10008KT 30/13 A3005 RMK A01 T02950130  RH  036%=      5-min Rain = 0
KSP2 040225Z 10007KT 30/13 A3005 RMK A01 T02950130  RH  036%=      5-min Rain = 0
KSP2 040226Z 10008KT 30/13 A3005 RMK A01 T02950130  RH  036%=      5-min Rain = 0
KSP2 040227Z 11008KT 30/13 A3005 RMK A01 T02950130  RH  036%=      5-min Rain = 0
KSP2 040228Z 11007KT 30/13 A3005 RMK A01 T02960130  RH  036%=      5-min Rain = 0
KSP2 040229Z 11007KT 30/13 A3005 RMK A01 T02960130  RH  036%=      5-min Rain = 0
KSP2 040230Z 11007KT 30/13 A3005 RMK A01 T02960130  RH  036%=      5-min Rain = 0
KSP2 040231Z 10006KT 30/13 A3005 RMK A01 T02950130  RH  036%=      5-min Rain = 0
KSP2 040232Z 10006KT 29/13 A3005 RMK A01 T02940129  RH  036%=      5-min Rain = 0
KSP2 040233Z 10006KT 29/13 A3005 RMK A01 T02930129  RH  037%=      5-min Rain = 0
KSP2 040234Z 11006KT 29/13 A3005 RMK A01 T02920129  RH  037%=      5-min Rain = 0
KSP2 040235Z 10007KT 29/13 A3005 RMK A01 T02910130  RH  037%=      5-min Rain = 0
KSP2 040236Z 10006KT 29/13 A3005 RMK A01 T02910130  RH  037%=      5-min Rain = 0
KSP2 040237Z 11007KT 29/13 A3005 RMK A01 T02900130  RH  037%=      5-min Rain = 0
KSP2 040238Z 10007KT 29/13 A3005 RMK A01 T02900130  RH  037%=      5-min Rain = 0
KSP2 040239Z 11007KT 29/13 A3005 RMK A01 T02900130  RH  037%=      5-min Rain = 0
KSP2 040240Z 11007KT 29/13 A3005 RMK A01 T02910131  RH  037%=      5-min Rain = 0
KSP2 040241Z 10007KT 29/13 A3005 RMK A01 T02920131  RH  037%=      5-min Rain = 0
KSP2 040242Z 11007KT 29/13 A3006 RMK A01 T02920131  RH  037%=      5-min Rain = 0
KSP2 040243Z 11007KT 29/13 A3006 RMK A01 T02920132  RH  037%=      5-min Rain = 0
KSP2 040244Z 11007KT 29/13 A3006 RMK A01 T02920132  RH  037%=      5-min Rain = 0
KSP2 040245Z 11007KT 29/13 A3006 RMK A01 T02920132  RH  037%=      5-min Rain = 0
KSP2 040246Z 12007KT 29/13 A3006 RMK A01 T02920132  RH  037%=      5-min Rain = 0
KSP2 040247Z 12006KT 29/13 A3006 RMK A01 T02920132  RH  038%=      5-min Rain = 0
KSP2 040248Z 12006KT 29/13 A3006 RMK A01 T02910132  RH  038%=      5-min Rain = 0
KSP2 040249Z 12006KT 29/13 A3006 RMK A01 T02910133  RH  038%=      5-min Rain = 0
KSP2 040250Z 12006KT 29/13 A3006 RMK A01 T02900133  RH  038%=      5-min Rain = 0
KSP2 040251Z 12006KT 29/13 A3006 RMK A01 T02900133  RH  038%=      5-min Rain = 0
KSP2 040252Z 13006KT 29/13 A3006 RMK A01 T02900133  RH  038%=      5-min Rain = 0
KSP2 040253Z 12006KT 29/13 A3006 RMK A01 T02890133  RH  038%=      5-min Rain = 0
KSP2 040254Z 13006KT 29/13 A3006 RMK A01 T02890134  RH  039%=      5-min Rain = 0
KSP2 040255Z 13007KT 29/14 A3006 RMK A01 T02880135  RH  039%=      5-min Rain = 0
KSP2 040256Z 13006KT 29/14 A3006 RMK A01 T02880136  RH  039%=      5-min Rain = 0
KSP2 040257Z 13006KT 29/14 A3006 RMK A01 T02870136  RH  040%=      5-min Rain = 0
KSP2 040258Z 13006KT 29/14 A3006 RMK A01 T02860136  RH  040%=      5-min Rain = 0
KSP2 040259Z 13006KT 29/14 A3006 RMK A01 T02860137  RH  040%=      5-min Rain = 0
KSP2 040300Z 13006KT 29/14 A3006 RMK A01 T02850137  RH  040%=      5-min Rain = 0
KSP2 040301Z 13006KT 29/14 A3006 RMK A01 T02850137  RH  040%=      5-min Rain = 0
KSP2 040302Z 13006KT 28/14 A3007 RMK A01 T02840136  RH  040%=      5-min Rain = 0
KSP2 040303Z 13006KT 28/14 A3007 RMK A01 T02840136  RH  040%=      5-min Rain = 0
KSP2 040304Z 13005KT 28/14 A3007 RMK A01 T02840136  RH  040%=      5-min Rain = 0
KSP2 040305Z 13006KT 28/14 A3007 RMK A01 T02840136  RH  040%=      5-min Rain = 0
KSP2 040306Z 13006KT 28/14 A3007 RMK A01 T02840136  RH  040%=      5-min Rain = 0
KSP2 040307Z 13006KT 28/14 A3007 RMK A01 T02830136  RH  040%=      5-min Rain = 0
KSP2 040308Z 14006KT 28/14 A3007 RMK A01 T02830136  RH  040%=      5-min Rain = 0
KSP2 040309Z 14006KT 28/14 A3007 RMK A01 T02830136  RH  040%=      5-min Rain = 0
KSP2 040310Z 14006KT 28/14 A3007 RMK A01 T02830136  RH  041%=      5-min Rain = 0
KSP2 040311Z 14006KT 28/14 A3007 RMK A01 T02830137  RH  041%=      5-min Rain = 0
KSP2 040312Z 14006KT 28/14 A3007 RMK A01 T02830136  RH  041%=      5-min Rain = 0
KSP2 040313Z 14006KT 28/14 A3007 RMK A01 T02820136  RH  041%=      5-min Rain = 0
KSP2 040314Z 14006KT 28/14 A3007 RMK A01 T02820136  RH  041%=      5-min Rain = 0
KSP2 040315Z 14005KT 28/14 A3007 RMK A01 T02810136  RH  041%=      5-min Rain = 0
KSP2 040316Z 14007KT 28/14 A3007 RMK A01 T02810136  RH  041%=      5-min Rain = 0
KSP2 040317Z 14006KT 28/14 A3007 RMK A01 T02810136  RH  041%=      5-min Rain = 0
KSP2 040318Z 14006KT 28/14 A3007 RMK A01 T02800136  RH  041%=      5-min Rain = 0
KSP2 040319Z 14007KT 28/14 A3007 RMK A01 T02800137  RH  041%=      5-min Rain = 0
KSP2 040320Z 14006KT 28/14 A3007 RMK A01 T02800137  RH  041%=      5-min Rain = 0
KSP2 040321Z 14006KT 28/14 A3007 RMK A01 T02790136  RH  041%=      5-min Rain = 0
KSP2 040322Z 14006KT 28/14 A3007 RMK A01 T02790137  RH  042%=      5-min Rain = 0
KSP2 040323Z 14006KT 28/14 A3008 RMK A01 T02790137  RH  042%=      5-min Rain = 0
KSP2 040324Z 14006KT 28/14 A3008 RMK A01 T02790137  RH  042%=      5-min Rain = 0
KSP2 040325Z 14006KT 28/14 A3008 RMK A01 T02780137  RH  042%=      5-min Rain = 0
KSP2 040326Z 13006KT 28/14 A3008 RMK A01 T02780137  RH  042%=      5-min Rain = 0
KSP2 040327Z 13006KT 28/14 A3008 RMK A01 T02780138  RH  042%=      5-min Rain = 0
KSP2 040328Z 14006KT 28/14 A3008 RMK A01 T02770138  RH  042%=      5-min Rain = 0
KSP2 040329Z 14006KT 28/14 A3008 RMK A01 T02760138  RH  043%=      5-min Rain = 0
KSP2 040330Z 14006KT 28/14 A3008 RMK A01 T02750138  RH  043%=      5-min Rain = 0
KSP2 040331Z 14006KT 28/14 A3008 RMK A01 T02750138  RH  043%=      5-min Rain = 0
KSP2 040332Z 13006KT 27/14 A3008 RMK A01 T02740138  RH  043%=      5-min Rain = 0
KSP2 040333Z 13005KT 27/14 A3008 RMK A01 T02730138  RH  043%=      5-min Rain = 0
KSP2 040334Z 14006KT 27/14 A3008 RMK A01 T02730138  RH  044%=      5-min Rain = 0
KSP2 040335Z 14006KT 27/14 A3008 RMK A01 T02720138  RH  044%=      5-min Rain = 0
KSP2 040336Z 14005KT 27/14 A3008 RMK A01 T02720139  RH  044%=      5-min Rain = 0
KSP2 040337Z 14006KT 27/14 A3008 RMK A01 T02710138  RH  044%=      5-min Rain = 0
KSP2 040338Z 14005KT 27/14 A3008 RMK A01 T02710139  RH  044%=      5-min Rain = 0
KSP2 040339Z 14005KT 27/14 A3008 RMK A01 T02710138  RH  044%=      5-min Rain = 0
KSP2 040340Z 14006KT 27/14 A3008 RMK A01 T02710139  RH  044%=      5-min Rain = 0
KSP2 040341Z 14005KT 27/14 A3008 RMK A01 T02700139  RH  044%=      5-min Rain = 0
KSP2 040342Z 14006KT 27/14 A3008 RMK A01 T02700139  RH  045%=      5-min Rain = 0
KSP2 040343Z 14006KT 27/14 A3008 RMK A01 T02700139  RH  045%=      5-min Rain = 0
KSP2 040344Z 14005KT 27/14 A3008 RMK A01 T02700140  RH  045%=      5-min Rain = 0
KSP2 040345Z 14006KT 27/14 A3008 RMK A01 T02700140  RH  045%=      5-min Rain = 0
KSP2 040346Z 14007KT 27/14 A3008 RMK A01 T02700140  RH  045%=      5-min Rain = 0
KSP2 040347Z 14006KT 27/14 A3008 RMK A01 T02700140  RH  045%=      5-min Rain = 0
KSP2 040348Z 15006KT 27/14 A3008 RMK A01 T02700140  RH  045%=      5-min Rain = 0
KSP2 040349Z 15007KT 27/14 A3008 RMK A01 T02700141  RH  045%=      5-min Rain = 0
KSP2 040350Z 15006KT 27/14 A3008 RMK A01 T02700141  RH  045%=      5-min Rain = 0
KSP2 040351Z 15006KT 27/14 A3008 RMK A01 T02690141  RH  045%=      5-min Rain = 0
KSP2 040352Z 15006KT 27/14 A3008 RMK A01 T02690141  RH  045%=      5-min Rain = 0
KSP2 040353Z 15006KT 27/14 A3008 RMK A01 T02690142  RH  046%=      5-min Rain = 0
KSP2 040354Z 15006KT 27/14 A3008 RMK A01 T02680142  RH  046%=      5-min Rain = 0
KSP2 040355Z 15006KT 27/14 A3008 RMK A01 T02680142  RH  046%=      5-min Rain = 0
KSP2 040356Z 15007KT 27/14 A3008 RMK A01 T02680143  RH  046%=      5-min Rain = 0
KSP2 040357Z 15007KT 27/14 A3008 RMK A01 T02680143  RH  046%=      5-min Rain = 0
KSP2 040358Z 15006KT 27/14 A3008 RMK A01 T02680143  RH  046%=      5-min Rain = 0
KSP2 040359Z 15006KT 27/14 A3008 RMK A01 T02680143  RH  046%=      5-min Rain = 0
KSP2 040400Z 15006KT 27/14 A3008 RMK A01 T02670143  RH  046%=      5-min Rain = 0
KSP2 040401Z 14006KT 27/14 A3008 RMK A01 T02670143  RH  047%=      5-min Rain = 0
KSP2 040402Z 14005KT 27/14 A3008 RMK A01 T02670143  RH  047%=      5-min Rain = 0
KSP2 040403Z 15006KT 27/14 A3008 RMK A01 T02660143  RH  047%=      5-min Rain = 0
KSP2 040404Z 14006KT 27/14 A3008 RMK A01 T02670143  RH  047%=      5-min Rain = 0
KSP2 040405Z 15005KT 27/14 A3009 RMK A01 T02670144  RH  047%=      5-min Rain = 0
KSP2 040406Z 15005KT 27/14 A3009 RMK A01 T02660144  RH  047%=      5-min Rain = 0
KSP2 040407Z 15005KT 27/14 A3009 RMK A01 T02650143  RH  047%=      5-min Rain = 0
KSP2 040408Z 15005KT 27/14 A3008 RMK A01 T02650143  RH  047%=      5-min Rain = 0
KSP2 040409Z 15005KT 26/14 A3008 RMK A01 T02640143  RH  047%=      5-min Rain = 0
KSP2 040410Z 15005KT 26/14 A3008 RMK A01 T02640143  RH  047%=      5-min Rain = 0
KSP2 040411Z 14004KT 26/14 A3008 RMK A01 T02630143  RH  048%=      5-min Rain = 0
KSP2 040412Z 15004KT 26/14 A3009 RMK A01 T02620143  RH  048%=      5-min Rain = 0
KSP2 040413Z 14004KT 26/14 A3009 RMK A01 T02620143  RH  048%=      5-min Rain = 0
KSP2 040414Z 14004KT 26/14 A3009 RMK A01 T02610143  RH  048%=      5-min Rain = 0
KSP2 040415Z 14004KT 26/14 A3009 RMK A01 T02610143  RH  048%=      5-min Rain = 0
KSP2 040416Z 14004KT 26/14 A3009 RMK A01 T02600143  RH  048%=      5-min Rain = 0
KSP2 040417Z 14004KT 26/14 A3009 RMK A01 T02590143  RH  049%=      5-min Rain = 0
KSP2 040418Z 13003KT 26/14 A3009 RMK A01 T02580142  RH  049%=      5-min Rain = 0
KSP2 040419Z 13004KT 26/14 A3009 RMK A01 T02580142  RH  049%=      5-min Rain = 0
KSP2 040420Z 13005KT 26/14 A3009 RMK A01 T02570142  RH  049%=      5-min Rain = 0
KSP2 040421Z 13006KT 26/14 A3009 RMK A01 T02550141  RH  049%=      5-min Rain = 0
KSP2 040422Z 13006KT 25/14 A3009 RMK A01 T02540141  RH  050%=      5-min Rain = 0
KSP2 040423Z 13005KT 25/14 A3009 RMK A01 T02530141  RH  050%=      5-min Rain = 0
KSP2 040424Z 13004KT 25/14 A3009 RMK A01 T02520141  RH  050%=      5-min Rain = 0
KSP2 040425Z 13004KT 25/14 A3009 RMK A01 T02520141  RH  050%=      5-min Rain = 0
KSP2 040426Z 14004KT 25/14 A3009 RMK A01 T02520141  RH  050%=      5-min Rain = 0
KSP2 040427Z 14005KT 25/14 A3009 RMK A01 T02510141  RH  050%=      5-min Rain = 0
KSP2 040428Z 14004KT 25/14 A3009 RMK A01 T02510141  RH  050%=      5-min Rain = 0
KSP2 040429Z 14004KT 25/14 A3009 RMK A01 T02520141  RH  050%=      5-min Rain = 0
KSP2 040430Z 13004KT 25/14 A3009 RMK A01 T02520141  RH  050%=      5-min Rain = 0
KSP2 040431Z 13004KT 25/14 A3009 RMK A01 T02510140  RH  050%=      5-min Rain = 0
KSP2 040432Z 13005KT 25/14 A3009 RMK A01 T02510141  RH  050%=      5-min Rain = 0
KSP2 040433Z 13005KT 25/14 A3009 RMK A01 T02510141  RH  050%=      5-min Rain = 0
KSP2 040434Z 13005KT 25/14 A3009 RMK A01 T02510141  RH  050%=      5-min Rain = 0
KSP2 040435Z 14005KT 25/14 A3009 RMK A01 T02510141  RH  050%=      5-min Rain = 0
KSP2 040436Z 14005KT 25/14 A3009 RMK A01 T02510142  RH  051%=      5-min Rain = 0
KSP2 040437Z 14005KT 25/14 A3009 RMK A01 T02510141  RH  050%=      5-min Rain = 0
KSP2 040438Z 14004KT 25/14 A3009 RMK A01 T02510141  RH  050%=      5-min Rain = 0
KSP2 040439Z 14004KT 25/14 A3009 RMK A01 T02520141  RH  050%=      5-min Rain = 0
KSP2 040440Z 14004KT 25/14 A3009 RMK A01 T02520141  RH  050%=      5-min Rain = 0
KSP2 040441Z 14004KT 25/14 A3009 RMK A01 T02520141  RH  050%=      5-min Rain = 0
KSP2 040442Z 14004KT 25/14 A3009 RMK A01 T02520141  RH  050%=      5-min Rain = 0
KSP2 040443Z 14004KT 25/14 A3009 RMK A01 T02520141  RH  050%=      5-min Rain = 0
KSP2 040444Z 15004KT 25/14 A3009 RMK A01 T02520141  RH  050%=      5-min Rain = 0
KSP2 040445Z 15004KT 25/14 A3009 RMK A01 T02520141  RH  050%=      5-min Rain = 0
KSP2 040446Z 15004KT 25/14 A3009 RMK A01 T02510141  RH  050%=      5-min Rain = 0
KSP2 040447Z 15004KT 25/14 A3009 RMK A01 T02510141  RH  051%=      5-min Rain = 0
KSP2 040448Z 15004KT 25/14 A3009 RMK A01 T02500141  RH  051%=      5-min Rain = 0
KSP2 040449Z 15003KT 25/14 A3009 RMK A01 T02490141  RH  051%=      5-min Rain = 0
KSP2 040450Z 15003KT 25/14 A3009 RMK A01 T02490141  RH  051%=      5-min Rain = 0
KSP2 040451Z 15003KT 25/14 A3009 RMK A01 T02480141  RH  051%=      5-min Rain = 0
KSP2 040452Z 15003KT 25/14 A3009 RMK A01 T02470141  RH  051%=      5-min Rain = 0
KSP2 040453Z 15003KT 25/14 A3009 RMK A01 T02470141  RH  052%=      5-min Rain = 0
KSP2 040454Z 15003KT 25/14 A3009 RMK A01 T02460141  RH  052%=      5-min Rain = 0
KSP2 040455Z 15002KT 25/14 A3009 RMK A01 T02460141  RH  052%=      5-min Rain = 0
KSP2 040456Z 16002KT 25/14 A3009 RMK A01 T02450141  RH  052%=      5-min Rain = 0
KSP2 040457Z 16002KT 24/14 A3009 RMK A01 T02440141  RH  052%=      5-min Rain = 0
KSP2 040458Z 16002KT 24/14 A3009 RMK A01 T02440141  RH  053%=      5-min Rain = 0
KSP2 040459Z 15003KT 24/14 A3009 RMK A01 T02430141  RH  053%=      5-min Rain = 0

Page generated in 0.1372 seconds.